Observation data for Menard on 12/09/2018      Previous  Date       Current Mesonet Observations  Soil Data  Daily Summary Page  Observations in Plain Language
KMD1 090600Z 32004KT 02/00 A3033 RMK A01 T00210004  RH  089%=      5-min Rain = 0
KMD1 090601Z 31007KT 02/00 A3033 RMK A01 T00200004  RH  089%=      5-min Rain = 0
KMD1 090602Z 31005KT 02/00 A3033 RMK A01 T00210004  RH  089%=      5-min Rain = 0
KMD1 090603Z 32005KT 02/00 A3033 RMK A01 T00200004  RH  089%=      5-min Rain = 0
KMD1 090604Z 32005KT 02/00 A3033 RMK A01 T00200004  RH  089%=      5-min Rain = 0
KMD1 090605Z 31006KT 02/00 A3033 RMK A01 T00200003  RH  089%=      5-min Rain = 0
KMD1 090606Z 31005KT 02/00 A3033 RMK A01 T00200004  RH  089%=      5-min Rain = 0
KMD1 090607Z 31005KT 02/00 A3033 RMK A01 T00190003  RH  089%=      5-min Rain = 0
KMD1 090608Z 31005KT 02/00 A3033 RMK A01 T00190002  RH  089%=      5-min Rain = 0
KMD1 090609Z 32006KT 02/00 A3033 RMK A01 T00190002  RH  089%=      5-min Rain = 0
KMD1 090610Z 31007KT 02/00 A3033 RMK A01 T00190003  RH  089%=      5-min Rain = 0
KMD1 090611Z 31008KT 02/00 A3032 RMK A01 T00190003  RH  089%=      5-min Rain = 0
KMD1 090612Z 31006KT 02/00 A3033 RMK A01 T00190003  RH  089%=      5-min Rain = 0
KMD1 090613Z 31005KT 02/00 A3033 RMK A01 T00200003  RH  089%=      5-min Rain = 0
KMD1 090614Z 32005KT 02/00 A3033 RMK A01 T00200003  RH  089%=      5-min Rain = 0
KMD1 090615Z 31004KT 02/00 A3032 RMK A01 T00190003  RH  089%=      5-min Rain = 0
KMD1 090616Z 32004KT 02/00 A3032 RMK A01 T00180002  RH  089%=      5-min Rain = 0
KMD1 090617Z 32004KT 02/00 A3032 RMK A01 T00180002  RH  089%=      5-min Rain = 0
KMD1 090618Z 32004KT 02/00 A3032 RMK A01 T00180002  RH  089%=      5-min Rain = 0
KMD1 090619Z 32004KT 02/00 A3032 RMK A01 T00180002  RH  089%=      5-min Rain = 0
KMD1 090620Z 33004KT 02/00 A3032 RMK A01 T00170002  RH  090%=      5-min Rain = 0
KMD1 090621Z 32004KT 02/00 A3032 RMK A01 T00170002  RH  090%=      5-min Rain = 0
KMD1 090622Z 33004KT 02/00 A3032 RMK A01 T00170002  RH  090%=      5-min Rain = 0
KMD1 090623Z 32004KT 02/00 A3032 RMK A01 T00170002  RH  090%=      5-min Rain = 0
KMD1 090624Z 33005KT 02/00 A3032 RMK A01 T00170002  RH  090%=      5-min Rain = 0
KMD1 090625Z 33004KT 02/00 A3032 RMK A01 T00170003  RH  090%=      5-min Rain = 0
KMD1 090626Z 33004KT 02/00 A3031 RMK A01 T00170003  RH  090%=      5-min Rain = 0
KMD1 090627Z 32004KT 02/00 A3031 RMK A01 T00160002  RH  090%=      5-min Rain = 0
KMD1 090628Z 32004KT 02/00 A3031 RMK A01 T00160003  RH  090%=      5-min Rain = 0
KMD1 090629Z 33004KT 02/00 A3031 RMK A01 T00160003  RH  091%=      5-min Rain = 0
KMD1 090630Z 33004KT 02/00 A3031 RMK A01 T00160003  RH  091%=      5-min Rain = 0
KMD1 090631Z 32004KT 02/00 A3031 RMK A01 T00160002  RH  090%=      5-min Rain = 0
KMD1 090632Z 32004KT 02/00 A3031 RMK A01 T00150002  RH  091%=      5-min Rain = 0
KMD1 090633Z 32004KT 02/00 A3031 RMK A01 T00150002  RH  091%=      5-min Rain = 0
KMD1 090634Z 32004KT 02/00 A3031 RMK A01 T00150001  RH  091%=      5-min Rain = 0
KMD1 090635Z 32003KT 02/00 A3031 RMK A01 T00150002  RH  091%=      5-min Rain = 0
KMD1 090636Z 31003KT 02/00 A3031 RMK A01 T00150002  RH  091%=      5-min Rain = 0
KMD1 090637Z 32004KT 01/00 A3031 RMK A01 T00140002  RH  091%=      5-min Rain = 0
KMD1 090638Z 31004KT 01/00 A3031 RMK A01 T00140002  RH  091%=      5-min Rain = 0
KMD1 090639Z 32003KT 01/00 A3031 RMK A01 T00140001  RH  091%=      5-min Rain = 0
KMD1 090640Z 31004KT 01/00 A3031 RMK A01 T00130001  RH  091%=      5-min Rain = 0
KMD1 090641Z 32003KT 01/00 A3031 RMK A01 T00130000  RH  091%=      5-min Rain = 0
KMD1 090642Z 32003KT 01/00 A3031 RMK A01 T00130001  RH  092%=      5-min Rain = 0
KMD1 090643Z 32003KT 01/00 A3031 RMK A01 T00120000  RH  092%=      5-min Rain = 0
KMD1 090644Z 32003KT 01/00 A3031 RMK A01 T00120001  RH  092%=      5-min Rain = 0
KMD1 090645Z 33002KT 01/00 A3031 RMK A01 T00120000  RH  092%=      5-min Rain = 0
KMD1 090646Z 33002KT 01/00 A3031 RMK A01 T00120000  RH  092%=      5-min Rain = 0
KMD1 090647Z 34002KT 01/M00 A3031 RMK A01 T00101001  RH  092%=      5-min Rain = 0
KMD1 090648Z 34002KT 01/M00 A3031 RMK A01 T00101001  RH  092%=      5-min Rain = 0
KMD1 090649Z 00001KT 01/M00 A3031 RMK A01 T00101001  RH  093%=      5-min Rain = 0
KMD1 090650Z 00001KT 01/00 A3031 RMK A01 T00100000  RH  093%=      5-min Rain = 0
KMD1 090651Z 00001KT 01/00 A3031 RMK A01 T00100001  RH  093%=      5-min Rain = 0
KMD1 090652Z 00001KT 01/00 A3031 RMK A01 T00110001  RH  093%=      5-min Rain = 0
KMD1 090653Z 00000KT 01/00 A3031 RMK A01 T00110001  RH  093%=      5-min Rain = 0
KMD1 090654Z 00000KT 01/00 A3031 RMK A01 T00100000  RH  093%=      5-min Rain = 0
KMD1 090655Z 00000KT 01/00 A3031 RMK A01 T001000-0  RH  093%=      5-min Rain = 0
KMD1 090656Z 00000KT 01/00 A3031 RMK A01 T001000-0  RH  093%=      5-min Rain = 0
KMD1 090657Z 00001KT 01/M00 A3031 RMK A01 T00091001  RH  093%=      5-min Rain = 0
KMD1 090658Z 02001KT 01/M00 A3031 RMK A01 T00091001  RH  093%=      5-min Rain = 0
KMD1 090659Z 03001KT 01/M00 A3031 RMK A01 T00081001  RH  093%=      5-min Rain = 0
KMD1 090700Z 03002KT 01/M00 A303 RMK A01 T00081001  RH  093%=      5-min Rain = 0
KMD1 090701Z 01002KT 01/M00 A3031 RMK A01 T00081001  RH  094%=      5-min Rain = 0
KMD1 090702Z 01001KT 01/M00 A3031 RMK A01 T00081001  RH  094%=      5-min Rain = 0
KMD1 090703Z 00002KT 01/M00 A3031 RMK A01 T00071001  RH  094%=      5-min Rain = 0
KMD1 090704Z 00001KT 01/M00 A3031 RMK A01 T00071002  RH  094%=      5-min Rain = 0
KMD1 090705Z 00001KT 01/M00 A3031 RMK A01 T00071002  RH  094%=      5-min Rain = 0
KMD1 090706Z 35001KT 01/M00 A3031 RMK A01 T00061002  RH  094%=      5-min Rain = 0
KMD1 090707Z 34001KT 01/M00 A3031 RMK A01 T00061002  RH  094%=      5-min Rain = 0
KMD1 090708Z 32000KT 01/M00 A3031 RMK A01 T00061002  RH  094%=      5-min Rain = 0
KMD1 090709Z 31001KT 01/M00 A3031 RMK A01 T00061002  RH  094%=      5-min Rain = 0
KMD1 090710Z 31001KT 01/M00 A3031 RMK A01 T00061002  RH  095%=      5-min Rain = 0
KMD1 090711Z 31000KT 01/M00 A3031 RMK A01 T00061002  RH  095%=      5-min Rain = 0
KMD1 090712Z 00000KT 01/M00 A3031 RMK A01 T00061001  RH  095%=      5-min Rain = 0
KMD1 090713Z 00000KT 01/M00 A3031 RMK A01 T00061001  RH  095%=      5-min Rain = 0
KMD1 090714Z 31000KT 01/M00 A3031 RMK A01 T00061001  RH  095%=      5-min Rain = 0
KMD1 090715Z 31000KT 01/M00 A3031 RMK A01 T00061001  RH  095%=      5-min Rain = 0
KMD1 090716Z 00000KT 01/M00 A3031 RMK A01 T00051001  RH  095%=      5-min Rain = 0
KMD1 090717Z 00000KT 01/M00 A3031 RMK A01 T00051002  RH  095%=      5-min Rain = 0
KMD1 090718Z 00000KT 01/M00 A3031 RMK A01 T00051002  RH  095%=      5-min Rain = 0
KMD1 090719Z 00000KT 00/M00 A3031 RMK A01 T00041002  RH  095%=      5-min Rain = 0
KMD1 090720Z 00000KT 00/M00 A3031 RMK A01 T00041002  RH  095%=      5-min Rain = 0
KMD1 090721Z 00000KT 01/M00 A3031 RMK A01 T00051002  RH  096%=      5-min Rain = 0
KMD1 090722Z 00000KT 00/M00 A3031 RMK A01 T00041002  RH  096%=      5-min Rain = 0
KMD1 090723Z 00000KT 00/M00 A3031 RMK A01 T00041002  RH  096%=      5-min Rain = 0
KMD1 090724Z 00000KT 00/M00 A3031 RMK A01 T00041002  RH  096%=      5-min Rain = 0
KMD1 090725Z 00000KT 00/M00 A3031 RMK A01 T00041002  RH  096%=      5-min Rain = 0
KMD1 090726Z 31000KT 00/M00 A3031 RMK A01 T00041002  RH  096%=      5-min Rain = 0
KMD1 090727Z 31000KT 00/M00 A3031 RMK A01 T00041001  RH  096%=      5-min Rain = 0
KMD1 090728Z 31001KT 01/M00 A3031 RMK A01 T00051001  RH  096%=      5-min Rain = 0
KMD1 090729Z 31001KT 01/M00 A3031 RMK A01 T00051001  RH  096%=      5-min Rain = 0
KMD1 090730Z 31000KT 01/M00 A3031 RMK A01 T00051001  RH  096%=      5-min Rain = 0
KMD1 090731Z 31001KT 01/M00 A3031 RMK A01 T00051001  RH  096%=      5-min Rain = 0
KMD1 090732Z 29001KT 00/M00 A3031 RMK A01 T00041001  RH  096%=      5-min Rain = 0
KMD1 090733Z 28001KT 00/M00 A3031 RMK A01 T00041001  RH  096%=      5-min Rain = 0
KMD1 090734Z 28001KT 00/M00 A3031 RMK A01 T00041001  RH  096%=      5-min Rain = 0
KMD1 090735Z 28001KT 00/M00 A3031 RMK A01 T00041001  RH  096%=      5-min Rain = 0
KMD1 090736Z 28001KT 00/M00 A3031 RMK A01 T00041001  RH  096%=      5-min Rain = 0
KMD1 090737Z 28001KT 00/M00 A3031 RMK A01 T00041001  RH  096%=      5-min Rain = 0
KMD1 090738Z 28001KT 00/M00 A3031 RMK A01 T00041001  RH  096%=      5-min Rain = 0
KMD1 090739Z 28001KT 00/M00 A3031 RMK A01 T00041002  RH  096%=      5-min Rain = 0
KMD1 090740Z 28001KT 00/M00 A3031 RMK A01 T00031003  RH  096%=      5-min Rain = 0
KMD1 090741Z 28001KT 00/M00 A3031 RMK A01 T00021004  RH  096%=      5-min Rain = 0
KMD1 090742Z 28001KT 00/M00 A3031 RMK A01 T00011004  RH  096%=      5-min Rain = 0
KMD1 090743Z 28001KT 00/M00 A3031 RMK A01 T00011004  RH  096%=      5-min Rain = 0
KMD1 090744Z 28001KT 00/01 A3031 RMK A01 T000000-5  RH  096%=      5-min Rain = 0
KMD1 090745Z 28001KT 00/01 A3031 RMK A01 T00-000-6  RH  096%=      5-min Rain = 0
KMD1 090746Z 28001KT M00/M01 A3031 RMK A01 T10021007  RH  096%=      5-min Rain = 0
KMD1 090747Z 28001KT M00/M01 A3031 RMK A01 T10031009  RH  096%=      5-min Rain = 0
KMD1 090748Z 28001KT M00/M01 A3031 RMK A01 T10041010  RH  096%=      5-min Rain = 0
KMD1 090749Z 28001KT M01/M01 A3031 RMK A01 T10051011  RH  096%=      5-min Rain = 0
KMD1 090750Z 28000KT M01/M01 A3031 RMK A01 T10051011  RH  096%=      5-min Rain = 0
KMD1 090751Z 35001KT M01/M01 A3031 RMK A01 T10071012  RH  096%=      5-min Rain = 0
KMD1 090752Z 36002KT M01/M01 A3031 RMK A01 T10071013  RH  096%=      5-min Rain = 0
KMD1 090753Z 00003KT M01/M01 A3031 RMK A01 T10071012  RH  096%=      5-min Rain = 0
KMD1 090754Z 00003KT M01/M01 A3031 RMK A01 T10071012  RH  096%=      5-min Rain = 0
KMD1 090755Z 01003KT M01/M01 A3031 RMK A01 T10071012  RH  097%=      5-min Rain = 0
KMD1 090756Z 00003KT M01/M01 A3031 RMK A01 T10071012  RH  097%=      5-min Rain = 0
KMD1 090757Z 00003KT M01/M01 A3031 RMK A01 T10071011  RH  097%=      5-min Rain = 0
KMD1 090758Z 00003KT M01/M01 A3031 RMK A01 T10061010  RH  097%=      5-min Rain = 0
KMD1 090759Z 00003KT M01/M01 A3031 RMK A01 T10051009  RH  097%=      5-min Rain = 0
KMD1 090800Z 00003KT M01/M01 A3031 RMK A01 T10051008  RH  097%=      5-min Rain = 0
KMD1 090801Z 00003KT M00/M01 A3031 RMK A01 T10041008  RH  097%=      5-min Rain = 0
KMD1 090802Z 00003KT M01/M01 A3031 RMK A01 T10051008  RH  097%=      5-min Rain = 0
KMD1 090803Z 00002KT M00/M01 A3031 RMK A01 T10041008  RH  097%=      5-min Rain = 0
KMD1 090804Z 36002KT M01/M01 A3031 RMK A01 T10051008  RH  097%=      5-min Rain = 0
KMD1 090805Z 35003KT M00/M01 A3031 RMK A01 T10041008  RH  098%=      5-min Rain = 0
KMD1 090806Z 35002KT M00/M01 A3031 RMK A01 T10041008  RH  098%=      5-min Rain = 0
KMD1 090807Z 35002KT M00/M01 A3031 RMK A01 T10041008  RH  098%=      5-min Rain = 0
KMD1 090808Z 35002KT M00/M01 A3031 RMK A01 T10041008  RH  098%=      5-min Rain = 0
KMD1 090809Z 35002KT M01/M01 A3031 RMK A01 T10051008  RH  097%=      5-min Rain = 0
KMD1 090810Z 35002KT M01/M01 A3031 RMK A01 T10051009  RH  097%=      5-min Rain = 0
KMD1 090811Z 35002KT M01/M01 A303 RMK A01 T10061009  RH  097%=      5-min Rain = 0
KMD1 090812Z 35002KT M01/M01 A303 RMK A01 T10061010  RH  097%=      5-min Rain = 0
KMD1 090813Z 35002KT M01/M01 A303 RMK A01 T10061010  RH  098%=      5-min Rain = 0
KMD1 090814Z 35002KT M01/M01 A303 RMK A01 T10061009  RH  098%=      5-min Rain = 0
KMD1 090815Z 34002KT M01/M01 A303 RMK A01 T10061009  RH  098%=      5-min Rain = 0
KMD1 090816Z 34002KT M01/M01 A303 RMK A01 T10061009  RH  098%=      5-min Rain = 0
KMD1 090817Z 33002KT M01/M01 A303 RMK A01 T10061010  RH  098%=      5-min Rain = 0
KMD1 090818Z 33002KT M01/M01 A303 RMK A01 T10061009  RH  098%=      5-min Rain = 0
KMD1 090819Z 33002KT M01/M01 A303 RMK A01 T10061009  RH  098%=      5-min Rain = 0
KMD1 090820Z 34002KT M01/M01 A303 RMK A01 T10061009  RH  098%=      5-min Rain = 0
KMD1 090821Z 34002KT M01/M01 A303 RMK A01 T10061009  RH  098%=      5-min Rain = 0
KMD1 090822Z 34002KT M01/M01 A303 RMK A01 T10061009  RH  098%=      5-min Rain = 0
KMD1 090823Z 34002KT M01/M01 A303 RMK A01 T10061009  RH  098%=      5-min Rain = 0
KMD1 090824Z 33002KT M01/M01 A303 RMK A01 T10081011  RH  098%=      5-min Rain = 0
KMD1 090825Z 34002KT M01/M01 A303 RMK A01 T10091013  RH  097%=      5-min Rain = 0
KMD1 090826Z 35002KT M01/M01 A303 RMK A01 T10101014  RH  097%=      5-min Rain = 0
KMD1 090827Z 35002KT M01/M01 A303 RMK A01 T10111014  RH  098%=      5-min Rain = 0
KMD1 090828Z 34002KT M01/M01 A303 RMK A01 T10111014  RH  098%=      5-min Rain = 0
KMD1 090829Z 34002KT M01/M01 A303 RMK A01 T10111014  RH  098%=      5-min Rain = 0
KMD1 090830Z 33002KT M01/M01 A303 RMK A01 T10111014  RH  098%=      5-min Rain = 0
KMD1 090831Z 33002KT M01/M01 A303 RMK A01 T10111014  RH  098%=      5-min Rain = 0
KMD1 090832Z 34002KT M01/M01 A303 RMK A01 T10111014  RH  098%=      5-min Rain = 0
KMD1 090833Z 34002KT M01/M01 A303 RMK A01 T10111013  RH  098%=      5-min Rain = 0
KMD1 090834Z 33002KT M01/M01 A303 RMK A01 T10111014  RH  098%=      5-min Rain = 0
KMD1 090835Z 33002KT M01/M01 A303 RMK A01 T10111014  RH  098%=      5-min Rain = 0
KMD1 090836Z 33002KT M01/M02 A303 RMK A01 T10121015  RH  098%=      5-min Rain = 0
KMD1 090837Z 33002KT M01/M02 A303 RMK A01 T10121015  RH  098%=      5-min Rain = 0
KMD1 090838Z 33002KT M01/M02 A303 RMK A01 T10121015  RH  098%=      5-min Rain = 0
KMD1 090839Z 33002KT M01/M01 A303 RMK A01 T10111014  RH  098%=      5-min Rain = 0
KMD1 090840Z 33002KT M01/M01 A303 RMK A01 T10111013  RH  098%=      5-min Rain = 0
KMD1 090841Z 33002KT M01/M01 A303 RMK A01 T10111013  RH  098%=      5-min Rain = 0
KMD1 090842Z 34002KT M01/M01 A303 RMK A01 T10121014  RH  098%=      5-min Rain = 0
KMD1 090843Z 34002KT M01/M01 A303 RMK A01 T10121014  RH  098%=      5-min Rain = 0
KMD1 090844Z 34002KT M01/M01 A3029 RMK A01 T10121014  RH  099%=      5-min Rain = 0
KMD1 090845Z 35002KT M01/M01 A3029 RMK A01 T10111013  RH  099%=      5-min Rain = 0
KMD1 090846Z 34001KT M01/M01 A3029 RMK A01 T10111012  RH  099%=      5-min Rain = 0
KMD1 090847Z 34001KT M01/M01 A3029 RMK A01 T10111013  RH  099%=      5-min Rain = 0
KMD1 090848Z 35001KT M01/M01 A3029 RMK A01 T10111013  RH  099%=      5-min Rain = 0
KMD1 090849Z 35001KT M01/M01 A3029 RMK A01 T10111013  RH  099%=      5-min Rain = 0
KMD1 090850Z 35001KT M01/M01 A3029 RMK A01 T10101012  RH  099%=      5-min Rain = 0
KMD1 090851Z 35001KT M01/M01 A3029 RMK A01 T10101012  RH  099%=      5-min Rain = 0
KMD1 090852Z 35001KT M01/M01 A3029 RMK A01 T10101012  RH  099%=      5-min Rain = 0
KMD1 090853Z 35002KT M01/M01 A3029 RMK A01 T10101012  RH  099%=      5-min Rain = 0
KMD1 090854Z 35002KT M01/M01 A3029 RMK A01 T10101012  RH  099%=      5-min Rain = 0
KMD1 090855Z 35002KT M01/M01 A3029 RMK A01 T10101012  RH  099%=      5-min Rain = 0
KMD1 090856Z 35002KT M01/M01 A3029 RMK A01 T10111013  RH  099%=      5-min Rain = 0
KMD1 090857Z 34002KT M01/M01 A3029 RMK A01 T10111012  RH  099%=      5-min Rain = 0
KMD1 090858Z 34002KT M01/M01 A3029 RMK A01 T10111012  RH  099%=      5-min Rain = 0
KMD1 090859Z 34003KT M01/M01 A3029 RMK A01 T10111013  RH  099%=      5-min Rain = 0
KMD1 090900Z 34002KT M01/M01 A3029 RMK A01 T10111012  RH  099%=      5-min Rain = 0
KMD1 090901Z 34002KT M01/M01 A3029 RMK A01 T10111012  RH  099%=      5-min Rain = 0
KMD1 090902Z 34002KT M01/M01 A3029 RMK A01 T10101012  RH  099%=      5-min Rain = 0
KMD1 090903Z 34002KT M01/M01 A3029 RMK A01 T10091011  RH  099%=      5-min Rain = 0
KMD1 090904Z 34001KT M01/M01 A3029 RMK A01 T10091011  RH  099%=      5-min Rain = 0
KMD1 090905Z 34001KT M01/M01 A3029 RMK A01 T10101011  RH  099%=      5-min Rain = 0
KMD1 090906Z 34001KT M01/M01 A3029 RMK A01 T10101011  RH  099%=      5-min Rain = 0
KMD1 090907Z 34001KT M01/M01 A3029 RMK A01 T10101011  RH  099%=      5-min Rain = 0
KMD1 090908Z 34001KT M01/M01 A3029 RMK A01 T10101011  RH  099%=      5-min Rain = 0
KMD1 090909Z 34002KT M01/M01 A3029 RMK A01 T10101012  RH  099%=      5-min Rain = 0
KMD1 090910Z 34001KT M01/M01 A3029 RMK A01 T10111012  RH  099%=      5-min Rain = 0
KMD1 090911Z 34001KT M01/M01 A3029 RMK A01 T10121014  RH  099%=      5-min Rain = 0
KMD1 090912Z 34001KT M01/M02 A3029 RMK A01 T10131015  RH  099%=      5-min Rain = 0
KMD1 090913Z 34001KT M01/M02 A3029 RMK A01 T10131015  RH  099%=      5-min Rain = 0
KMD1 090914Z 33001KT M01/M02 A3029 RMK A01 T10131015  RH  099%=      5-min Rain = 0
KMD1 090915Z 33001KT M01/M01 A3029 RMK A01 T10131014  RH  099%=      5-min Rain = 0
KMD1 090916Z 33001KT M01/M01 A3029 RMK A01 T10121014  RH  099%=      5-min Rain = 0
KMD1 090917Z 33000KT M01/M01 A3029 RMK A01 T10121013  RH  099%=      5-min Rain = 0
KMD1 090918Z 33000KT M01/M01 A3029 RMK A01 T10121012  RH  099%=      5-min Rain = 0
KMD1 090919Z 00000KT M01/M01 A3029 RMK A01 T10121012  RH  099%=      5-min Rain = 0
KMD1 090920Z 00000KT M01/M01 A3029 RMK A01 T10111012  RH  099%=      5-min Rain = 0
KMD1 090921Z 00000KT M01/M01 A3029 RMK A01 T10121012  RH  099%=      5-min Rain = 0
KMD1 090922Z 00000KT M01/M01 A3029 RMK A01 T10111012  RH  099%=      5-min Rain = 0
KMD1 090923Z 00000KT M01/M01 A3029 RMK A01 T10121013  RH  099%=      5-min Rain = 0
KMD1 090924Z 33000KT M01/M01 A3029 RMK A01 T10121013  RH  099%=      5-min Rain = 0
KMD1 090925Z 00000KT M01/M01 A3029 RMK A01 T10121013  RH  099%=      5-min Rain = 0
KMD1 090926Z 33000KT M01/M01 A3029 RMK A01 T10121013  RH  099%=      5-min Rain = 0
KMD1 090927Z 32001KT M01/M01 A3029 RMK A01 T10131014  RH  099%=      5-min Rain = 0
KMD1 090928Z 30002KT M01/M01 A3029 RMK A01 T10131013  RH  099%=      5-min Rain = 0
KMD1 090929Z 30002KT M01/M01 A3029 RMK A01 T10131014  RH  099%=      5-min Rain = 0
KMD1 090930Z 28002KT M01/M02 A3029 RMK A01 T10141015  RH  099%=      5-min Rain = 0
KMD1 090931Z 28002KT M01/M02 A3029 RMK A01 T10141015  RH  099%=      5-min Rain = 0
KMD1 090932Z 28002KT M01/M02 A3029 RMK A01 T10141015  RH  099%=      5-min Rain = 0
KMD1 090933Z 28002KT M01/M02 A3029 RMK A01 T10141015  RH  099%=      5-min Rain = 0
KMD1 090934Z 27002KT M02/M02 A3029 RMK A01 T10151015  RH  099%=      5-min Rain = 0
KMD1 090935Z 27003KT M02/M02 A3029 RMK A01 T10151016  RH  099%=      5-min Rain = 0
KMD1 090936Z 27003KT M02/M02 A3029 RMK A01 T10151016  RH  099%=      5-min Rain = 0
KMD1 090937Z 27003KT M02/M02 A3029 RMK A01 T10151016  RH  099%=      5-min Rain = 0
KMD1 090938Z 26003KT M02/M02 A3029 RMK A01 T10161016  RH  100%=      5-min Rain = 0
KMD1 090939Z 26003KT M02/M02 A3029 RMK A01 T10151016  RH  100%=      5-min Rain = 0
KMD1 090940Z 26003KT M01/M02 A3029 RMK A01 T10141015  RH  100%=      5-min Rain = 0
KMD1 090941Z 26003KT M01/M01 A3029 RMK A01 T10141014  RH  100%=      5-min Rain = 0
KMD1 090942Z 27003KT M01/M01 A3029 RMK A01 T10141014  RH  100%=      5-min Rain = 0
KMD1 090943Z 27003KT M01/M01 A3029 RMK A01 T10131013  RH  100%=      5-min Rain = 0
KMD1 090944Z 26003KT M01/M01 A3029 RMK A01 T10141014  RH  100%=      5-min Rain = 0
KMD1 090945Z 27002KT M01/M01 A3029 RMK A01 T10131014  RH  100%=      5-min Rain = 0
KMD1 090946Z 27003KT M01/M01 A3029 RMK A01 T10131013  RH  100%=      5-min Rain = 0
KMD1 090947Z 26003KT M01/M01 A3029 RMK A01 T10131013  RH  100%=      5-min Rain = 0
KMD1 090948Z 26002KT M01/M01 A3029 RMK A01 T10131013  RH  100%=      5-min Rain = 0
KMD1 090949Z 26003KT M01/M01 A3029 RMK A01 T10131013  RH  100%=      5-min Rain = 0
KMD1 090950Z 25003KT M01/M01 A3029 RMK A01 T10131013  RH  100%=      5-min Rain = 0
KMD1 090951Z 26003KT M01/M01 A3029 RMK A01 T10141014  RH  100%=      5-min Rain = 0
KMD1 090952Z 26003KT M01/M01 A3029 RMK A01 T10141014  RH  100%=      5-min Rain = 0
KMD1 090953Z 26003KT M01/M01 A3029 RMK A01 T10141014  RH  100%=      5-min Rain = 0
KMD1 090954Z 26003KT M01/M01 A3029 RMK A01 T10131014  RH  100%=      5-min Rain = 0
KMD1 090955Z 27003KT M01/M01 A3029 RMK A01 T10131013  RH  100%=      5-min Rain = 0
KMD1 090956Z 27003KT M01/M01 A3029 RMK A01 T10141014  RH  100%=      5-min Rain = 0
KMD1 090957Z 28003KT M01/M01 A3029 RMK A01 T10141014  RH  100%=      5-min Rain = 0
KMD1 090958Z 28003KT M02/M02 A3029 RMK A01 T10151015  RH  100%=      5-min Rain = 0
KMD1 090959Z 28003KT M02/M02 A303 RMK A01 T10151015  RH  100%=      5-min Rain = 0
KMD1 091000Z 28003KT M02/M02 A303 RMK A01 T10151015  RH  100%=      5-min Rain = 0
KMD1 091001Z 28003KT M02/M02 A303 RMK A01 T10151015  RH  100%=      5-min Rain = 0
KMD1 091002Z 29003KT M02/M02 A303 RMK A01 T10161016  RH  100%=      5-min Rain = 0
KMD1 091003Z 29003KT M02/M02 A303 RMK A01 T10161017  RH  100%=      5-min Rain = 0
KMD1 091004Z 28003KT M02/M02 A303 RMK A01 T10161016  RH  100%=      5-min Rain = 0
KMD1 091005Z 28004KT M02/M02 A303 RMK A01 T10161016  RH  100%=      5-min Rain = 0
KMD1 091006Z 28004KT M02/M02 A303 RMK A01 T10151015  RH  100%=      5-min Rain = 0
KMD1 091007Z 28004KT M02/M02 A303 RMK A01 T10151015  RH  100%=      5-min Rain = 0
KMD1 091008Z 28004KT M02/M02 A303 RMK A01 T10151016  RH  100%=      5-min Rain = 0
KMD1 091009Z 28004KT M02/M02 A303 RMK A01 T10151015  RH  100%=      5-min Rain = 0
KMD1 091010Z 28004KT M02/M02 A303 RMK A01 T10151015  RH  100%=      5-min Rain = 0
KMD1 091011Z 28004KT M02/M02 A303 RMK A01 T10151015  RH  100%=      5-min Rain = 0
KMD1 091012Z 28004KT M02/M02 A303 RMK A01 T10151015  RH  100%=      5-min Rain = 0
KMD1 091013Z 28005KT M02/M02 A303 RMK A01 T10151015  RH  100%=      5-min Rain = 0
KMD1 091014Z 29005KT M01/M01 A303 RMK A01 T10141014  RH  100%=      5-min Rain = 0
KMD1 091015Z 29005KT M01/M01 A303 RMK A01 T10141014  RH  100%=      5-min Rain = 0
KMD1 091016Z 29005KT M01/M01 A303 RMK A01 T10131013  RH  100%=      5-min Rain = 0
KMD1 091017Z 29004KT M01/M01 A303 RMK A01 T10131014  RH  100%=      5-min Rain = 0
KMD1 091018Z 29004KT M01/M01 A303 RMK A01 T10131013  RH  100%=      5-min Rain = 0
KMD1 091019Z 29004KT M01/M01 A303 RMK A01 T10131013  RH  100%=      5-min Rain = 0
KMD1 091020Z 29004KT M01/M01 A303 RMK A01 T10131013  RH  100%=      5-min Rain = 0
KMD1 091021Z 29004KT M01/M01 A303 RMK A01 T10131013  RH  100%=      5-min Rain = 0
KMD1 091022Z 29004KT M01/M01 A303 RMK A01 T10131013  RH  100%=      5-min Rain = 0
KMD1 091023Z 29004KT M01/M01 A303 RMK A01 T10131013  RH  100%=      5-min Rain = 0
KMD1 091024Z 29004KT M01/M01 A303 RMK A01 T10131013  RH  100%=      5-min Rain = 0
KMD1 091025Z 29003KT M01/M01 A303 RMK A01 T10131014  RH  100%=      5-min Rain = 0
KMD1 091026Z 30003KT M01/M01 A303 RMK A01 T10141014  RH  100%=      5-min Rain = 0
KMD1 091027Z 30003KT M01/M01 A303 RMK A01 T10141014  RH  100%=      5-min Rain = 0
KMD1 091028Z 30002KT M02/M02 A303 RMK A01 T10151015  RH  100%=      5-min Rain = 0
KMD1 091029Z 30002KT M01/M02 A303 RMK A01 T10141015  RH  100%=      5-min Rain = 0
KMD1 091030Z 30002KT M02/M02 A303 RMK A01 T10151015  RH  100%=      5-min Rain = 0
KMD1 091031Z 30002KT M01/M01 A303 RMK A01 T10141014  RH  100%=      5-min Rain = 0
KMD1 091032Z 30002KT M01/M01 A303 RMK A01 T10141014  RH  100%=      5-min Rain = 0
KMD1 091033Z 30002KT M01/M01 A303 RMK A01 T10141014  RH  100%=      5-min Rain = 0
KMD1 091034Z 30002KT M01/M01 A303 RMK A01 T10141014  RH  100%=      5-min Rain = 0
KMD1 091035Z 31003KT M01/M01 A303 RMK A01 T10141014  RH  100%=      5-min Rain = 0
KMD1 091036Z 31003KT M01/M01 A303 RMK A01 T10141014  RH  100%=      5-min Rain = 0
KMD1 091037Z 32003KT M02/M02 A303 RMK A01 T10151015  RH  100%=      5-min Rain = 0
KMD1 091038Z 32003KT M02/M02 A303 RMK A01 T10151015  RH  100%=      5-min Rain = 0
KMD1 091039Z 33003KT M01/M02 A303 RMK A01 T10141015  RH  100%=      5-min Rain = 0
KMD1 091040Z 33003KT M02/M02 A303 RMK A01 T10151015  RH  100%=      5-min Rain = 0
KMD1 091041Z 33003KT M02/M02 A303 RMK A01 T10151015  RH  100%=      5-min Rain = 0
KMD1 091042Z 33003KT M02/M02 A303 RMK A01 T10151015  RH  100%=      5-min Rain = 0
KMD1 091043Z 33003KT M02/M02 A303 RMK A01 T10161016  RH  100%=      5-min Rain = 0
KMD1 091044Z 32002KT M02/M02 A303 RMK A01 T10171018  RH  100%=      5-min Rain = 0
KMD1 091045Z 31002KT M02/M02 A303 RMK A01 T10181019  RH  100%=      5-min Rain = 0
KMD1 091046Z 30002KT M02/M02 A303 RMK A01 T10201020  RH  099%=      5-min Rain = 0
KMD1 091047Z 30002KT M02/M02 A303 RMK A01 T10201021  RH  099%=      5-min Rain = 0
KMD1 091048Z 30002KT M02/M02 A303 RMK A01 T10211022  RH  099%=      5-min Rain = 0
KMD1 091049Z 30003KT M02/M02 A303 RMK A01 T10201021  RH  100%=      5-min Rain = 0
KMD1 091050Z 30002KT M02/M02 A303 RMK A01 T10201020  RH  100%=      5-min Rain = 0
KMD1 091051Z 30002KT M02/M02 A303 RMK A01 T10191019  RH  100%=      5-min Rain = 0
KMD1 091052Z 30002KT M02/M02 A303 RMK A01 T10171017  RH  100%=      5-min Rain = 0
KMD1 091053Z 30002KT M02/M02 A303 RMK A01 T10161016  RH  100%=      5-min Rain = 0
KMD1 091054Z 30002KT M02/M02 A303 RMK A01 T10161016  RH  100%=      5-min Rain = 0
KMD1 091055Z 29002KT M02/M02 A303 RMK A01 T10161016  RH  100%=      5-min Rain = 0
KMD1 091056Z 28002KT M02/M02 A303 RMK A01 T10161016  RH  100%=      5-min Rain = 0
KMD1 091057Z 28002KT M02/M02 A303 RMK A01 T10161016  RH  100%=      5-min Rain = 0
KMD1 091058Z 27002KT M02/M02 A303 RMK A01 T10151016  RH  100%=      5-min Rain = 0
KMD1 091059Z 27001KT M02/M02 A303 RMK A01 T10151016  RH  100%=      5-min Rain = 0
KMD1 091100Z 26002KT M02/M02 A303 RMK A01 T10161016  RH  100%=      5-min Rain = 0
KMD1 091101Z 26001KT M02/M02 A303 RMK A01 T10171017  RH  100%=      5-min Rain = 0
KMD1 091102Z 23002KT M02/M02 A303 RMK A01 T10191020  RH  099%=      5-min Rain = 0
KMD1 091103Z 23002KT M02/M02 A303 RMK A01 T10191020  RH  099%=      5-min Rain = 0
KMD1 091104Z 23002KT M02/M02 A303 RMK A01 T10191020  RH  100%=      5-min Rain = 0
KMD1 091105Z 23002KT M02/M02 A303 RMK A01 T10191019  RH  100%=      5-min Rain = 0
KMD1 091106Z 23002KT M02/M02 A303 RMK A01 T10181018  RH  100%=      5-min Rain = 0
KMD1 091107Z 24003KT M02/M02 A303 RMK A01 T10181018  RH  100%=      5-min Rain = 0
KMD1 091108Z 24002KT M02/M02 A303 RMK A01 T10181018  RH  100%=      5-min Rain = 0
KMD1 091109Z 25002KT M02/M02 A303 RMK A01 T10171018  RH  100%=      5-min Rain = 0
KMD1 091110Z 26002KT M02/M02 A303 RMK A01 T10181018  RH  100%=      5-min Rain = 0
KMD1 091111Z 27002KT M02/M02 A303 RMK A01 T10171018  RH  100%=      5-min Rain = 0
KMD1 091112Z 27002KT M02/M02 A303 RMK A01 T10181018  RH  100%=      5-min Rain = 0
KMD1 091113Z 27002KT M02/M02 A303 RMK A01 T10191019  RH  100%=      5-min Rain = 0
KMD1 091114Z 27002KT M02/M02 A303 RMK A01 T10191019  RH  100%=      5-min Rain = 0
KMD1 091115Z 27002KT M02/M02 A303 RMK A01 T10191019  RH  100%=      5-min Rain = 0
KMD1 091116Z 27002KT M02/M02 A303 RMK A01 T10201020  RH  100%=      5-min Rain = 0
KMD1 091117Z 27002KT M02/M02 A303 RMK A01 T10201020  RH  100%=      5-min Rain = 0
KMD1 091118Z 27002KT M02/M02 A303 RMK A01 T10201020  RH  100%=      5-min Rain = 0
KMD1 091119Z 27002KT M02/M02 A303 RMK A01 T10201020  RH  100%=      5-min Rain = 0
KMD1 091120Z 27002KT M02/M02 A303 RMK A01 T10201020  RH  100%=      5-min Rain = 0
KMD1 091121Z 28003KT M02/M02 A303 RMK A01 T10201021  RH  100%=      5-min Rain = 0
KMD1 091122Z 28003KT M02/M02 A3031 RMK A01 T10201020  RH  100%=      5-min Rain = 0
KMD1 091123Z 29003KT M02/M02 A3031 RMK A01 T10211021  RH  100%=      5-min Rain = 0
KMD1 091124Z 29003KT M02/M02 A3031 RMK A01 T10211021  RH  100%=      5-min Rain = 0
KMD1 091125Z 29002KT M02/M02 A3031 RMK A01 T10211022  RH  100%=      5-min Rain = 0
KMD1 091126Z 30002KT M02/M02 A3031 RMK A01 T10221022  RH  100%=      5-min Rain = 0
KMD1 091127Z 30002KT M02/M02 A3031 RMK A01 T10221022  RH  100%=      5-min Rain = 0
KMD1 091128Z 30001KT M02/M02 A3031 RMK A01 T10211021  RH  100%=      5-min Rain = 0
KMD1 091129Z 30001KT M02/M02 A3031 RMK A01 T10211021  RH  100%=      5-min Rain = 0
KMD1 091130Z 30001KT M02/M02 A3031 RMK A01 T10211021  RH  100%=      5-min Rain = 0
KMD1 091131Z 30001KT M02/M02 A3031 RMK A01 T10211021  RH  100%=      5-min Rain = 0
KMD1 091132Z 30001KT M02/M02 A3031 RMK A01 T10211021  RH  100%=      5-min Rain = 0
KMD1 091133Z 30000KT M02/M02 A3031 RMK A01 T10211021  RH  100%=      5-min Rain = 0
KMD1 091134Z 00000KT M02/M02 A3031 RMK A01 T10211021  RH  100%=      5-min Rain = 0
KMD1 091135Z 00000KT M02/M02 A3031 RMK A01 T10211021  RH  100%=      5-min Rain = 0
KMD1 091136Z 00000KT M02/M02 A3031 RMK A01 T10211021  RH  100%=      5-min Rain = 0
KMD1 091137Z 00000KT M02/M02 A3031 RMK A01 T10211021  RH  100%=      5-min Rain = 0
KMD1 091138Z 00000KT M02/M02 A3031 RMK A01 T10211021  RH  100%=      5-min Rain = 0
KMD1 091139Z 00000KT M02/M02 A3031 RMK A01 T10221022  RH  100%=      5-min Rain = 0
KMD1 091140Z 00000KT M02/M02 A3031 RMK A01 T10221022  RH  100%=      5-min Rain = 0
KMD1 091141Z 00000KT M02/M02 A3031 RMK A01 T10221022  RH  100%=      5-min Rain = 0
KMD1 091142Z 00000KT M02/M02 A3031 RMK A01 T10211022  RH  100%=      5-min Rain = 0
KMD1 091143Z 30000KT M02/M02 A3031 RMK A01 T10211021  RH  100%=      5-min Rain = 0
KMD1 091144Z 30000KT M02/M02 A3031 RMK A01 T10211021  RH  100%=      5-min Rain = 0
KMD1 091145Z 29000KT M02/M02 A3031 RMK A01 T10201021  RH  100%=      5-min Rain = 0
KMD1 091146Z 29000KT M02/M02 A3031 RMK A01 T10201021  RH  100%=      5-min Rain = 0
KMD1 091147Z 29000KT M02/M02 A3031 RMK A01 T10201021  RH  100%=      5-min Rain = 0
KMD1 091148Z 00000KT M02/M02 A3031 RMK A01 T10211021  RH  100%=      5-min Rain = 0
KMD1 091149Z 00000KT M02/M02 A3031 RMK A01 T10211021  RH  100%=      5-min Rain = 0
KMD1 091150Z 29000KT M02/M02 A3031 RMK A01 T10211021  RH  100%=      5-min Rain = 0
KMD1 091151Z 29000KT M02/M02 A3031 RMK A01 T10201021  RH  100%=      5-min Rain = 0
KMD1 091152Z 30001KT M02/M02 A3031 RMK A01 T10201020  RH  100%=      5-min Rain = 0
KMD1 091153Z 29001KT M02/M02 A3031 RMK A01 T10201020  RH  100%=      5-min Rain = 0
KMD1 091154Z 29001KT M02/M02 A3031 RMK A01 T10201020  RH  100%=      5-min Rain = 0
KMD1 091155Z 29001KT M02/M02 A3031 RMK A01 T10201021  RH  100%=      5-min Rain = 0
KMD1 091156Z 29001KT M02/M02 A3031 RMK A01 T10201020  RH  100%=      5-min Rain = 0
KMD1 091157Z 30001KT M02/M02 A3031 RMK A01 T10201020  RH  100%=      5-min Rain = 0
KMD1 091158Z 31001KT M02/M02 A3031 RMK A01 T10201021  RH  100%=      5-min Rain = 0
KMD1 091159Z 32001KT M02/M02 A3032 RMK A01 T10211021  RH  100%=      5-min Rain = 0
KMD1 091200Z 32002KT M02/M02 A3032 RMK A01 T10211021  RH  100%=      5-min Rain = 0
KMD1 091201Z 32002KT M02/M02 A3032 RMK A01 T10211021  RH  100%=      5-min Rain = 0
KMD1 091202Z 31002KT M02/M02 A3032 RMK A01 T10211021  RH  100%=      5-min Rain = 0
KMD1 091203Z 31002KT M02/M02 A3032 RMK A01 T10211022  RH  100%=      5-min Rain = 0
KMD1 091204Z 31002KT M02/M02 A3032 RMK A01 T10211021  RH  100%=      5-min Rain = 0
KMD1 091205Z 32002KT M02/M02 A3032 RMK A01 T10211021  RH  100%=      5-min Rain = 0
KMD1 091206Z 31002KT M02/M02 A3032 RMK A01 T10211021  RH  100%=      5-min Rain = 0
KMD1 091207Z 31002KT M02/M02 A3032 RMK A01 T10211021  RH  100%=      5-min Rain = 0
KMD1 091208Z 31002KT M02/M02 A3032 RMK A01 T10211021  RH  100%=      5-min Rain = 0
KMD1 091209Z 31002KT M02/M02 A3032 RMK A01 T10211022  RH  100%=      5-min Rain = 0
KMD1 091210Z 31002KT M02/M02 A3032 RMK A01 T10211021  RH  100%=      5-min Rain = 0
KMD1 091211Z 30002KT M02/M02 A3032 RMK A01 T10201020  RH  100%=      5-min Rain = 0
KMD1 091212Z 30002KT M02/M02 A3032 RMK A01 T10191019  RH  100%=      5-min Rain = 0
KMD1 091213Z 29002KT M02/M02 A3032 RMK A01 T10181019  RH  100%=      5-min Rain = 0
KMD1 091214Z 29003KT M02/M02 A3032 RMK A01 T10181018  RH  100%=      5-min Rain = 0
KMD1 091215Z 30003KT M02/M02 A3032 RMK A01 T10171017  RH  100%=      5-min Rain = 0
KMD1 091216Z 29003KT M02/M02 A3032 RMK A01 T10161016  RH  100%=      5-min Rain = 0
KMD1 091217Z 29003KT M02/M02 A3032 RMK A01 T10151015  RH  100%=      5-min Rain = 0
KMD1 091218Z 29003KT M01/M01 A3032 RMK A01 T10141014  RH  100%=      5-min Rain = 0
KMD1 091219Z 29003KT M01/M01 A3032 RMK A01 T10131013  RH  100%=      5-min Rain = 0
KMD1 091220Z 30003KT M01/M01 A3032 RMK A01 T10121012  RH  100%=      5-min Rain = 0
KMD1 091221Z 29003KT M01/M01 A3032 RMK A01 T10121012  RH  100%=      5-min Rain = 0
KMD1 091222Z 29003KT M01/M01 A3032 RMK A01 T10121012  RH  100%=      5-min Rain = 0
KMD1 091223Z 30003KT M01/M01 A3033 RMK A01 T10121012  RH  100%=      5-min Rain = 0
KMD1 091224Z 29003KT M01/M01 A3033 RMK A01 T10121012  RH  100%=      5-min Rain = 0
KMD1 091225Z 29003KT M01/M01 A3033 RMK A01 T10121012  RH  100%=      5-min Rain = 0
KMD1 091226Z 30003KT M01/M01 A3033 RMK A01 T10111011  RH  100%=      5-min Rain = 0
KMD1 091227Z 30003KT M01/M01 A3033 RMK A01 T10111011  RH  100%=      5-min Rain = 0
KMD1 091228Z 30002KT M01/M01 A3033 RMK A01 T10111011  RH  100%=      5-min Rain = 0
KMD1 091229Z 30003KT M01/M01 A3033 RMK A01 T10101011  RH  100%=      5-min Rain = 0
KMD1 091230Z 30003KT M01/M01 A3032 RMK A01 T10101010  RH  100%=      5-min Rain = 0
KMD1 091231Z 31003KT M01/M01 A3032 RMK A01 T10101011  RH  100%=      5-min Rain = 0
KMD1 091232Z 31003KT M01/M01 A3032 RMK A01 T10101011  RH  100%=      5-min Rain = 0
KMD1 091233Z 31002KT M01/M01 A3032 RMK A01 T10111011  RH  100%=      5-min Rain = 0
KMD1 091234Z 31003KT M01/M01 A3032 RMK A01 T10111011  RH  100%=      5-min Rain = 0
KMD1 091235Z 30002KT M01/M01 A3032 RMK A01 T10111011  RH  100%=      5-min Rain = 0
KMD1 091236Z 31002KT M01/M01 A3032 RMK A01 T10111011  RH  100%=      5-min Rain = 0
KMD1 091237Z 30002KT M01/M01 A3032 RMK A01 T10111011  RH  100%=      5-min Rain = 0
KMD1 091238Z 30002KT M01/M01 A3032 RMK A01 T10111012  RH  100%=      5-min Rain = 0
KMD1 091239Z 29002KT M01/M01 A3032 RMK A01 T10121012  RH  100%=      5-min Rain = 0
KMD1 091240Z 29001KT M01/M01 A3032 RMK A01 T10121013  RH  099%=      5-min Rain = 0
KMD1 091241Z 29001KT M01/M01 A3033 RMK A01 T10121013  RH  099%=      5-min Rain = 0
KMD1 091242Z 27001KT M01/M01 A3033 RMK A01 T10121013  RH  099%=      5-min Rain = 0
KMD1 091243Z 28002KT M01/M01 A3033 RMK A01 T10131013  RH  099%=      5-min Rain = 0
KMD1 091244Z 28002KT M01/M01 A3033 RMK A01 T10131013  RH  099%=      5-min Rain = 0
KMD1 091245Z 29002KT M01/M01 A3033 RMK A01 T10121012  RH  100%=      5-min Rain = 0
KMD1 091246Z 29001KT M01/M01 A3033 RMK A01 T10121013  RH  100%=      5-min Rain = 0
KMD1 091247Z 29001KT M01/M01 A3033 RMK A01 T10121013  RH  099%=      5-min Rain = 0
KMD1 091248Z 29001KT M01/M02 A3033 RMK A01 T10131015  RH  099%=      5-min Rain = 0
KMD1 091249Z 29001KT M01/M02 A3033 RMK A01 T10141016  RH  099%=      5-min Rain = 0
KMD1 091250Z 29001KT M02/M02 A3033 RMK A01 T10151017  RH  099%=      5-min Rain = 0
KMD1 091251Z 30001KT M02/M02 A3033 RMK A01 T10151017  RH  099%=      5-min Rain = 0
KMD1 091252Z 30001KT M02/M02 A3033 RMK A01 T10161018  RH  099%=      5-min Rain = 0
KMD1 091253Z 29001KT M02/M02 A3033 RMK A01 T10161018  RH  099%=      5-min Rain = 0
KMD1 091254Z 29001KT M02/M02 A3033 RMK A01 T10171018  RH  099%=      5-min Rain = 0
KMD1 091255Z 29002KT M02/M02 A3033 RMK A01 T10171018  RH  099%=      5-min Rain = 0
KMD1 091256Z 29002KT M02/M02 A3033 RMK A01 T10171018  RH  099%=      5-min Rain = 0
KMD1 091257Z 29002KT M02/M02 A3033 RMK A01 T10161018  RH  099%=      5-min Rain = 0
KMD1 091258Z 29001KT M02/M02 A3033 RMK A01 T10151016  RH  099%=      5-min Rain = 0
KMD1 091259Z 29002KT M01/M02 A3033 RMK A01 T10141015  RH  099%=      5-min Rain = 0
KMD1 091300Z 28001KT M01/M01 A3033 RMK A01 T10141014  RH  099%=      5-min Rain = 0
KMD1 091301Z 28002KT M01/M01 A3033 RMK A01 T10131014  RH  099%=      5-min Rain = 0
KMD1 091302Z 28002KT M01/M02 A3033 RMK A01 T10131015  RH  099%=      5-min Rain = 0
KMD1 091303Z 29002KT M01/M01 A3033 RMK A01 T10131014  RH  099%=      5-min Rain = 0
KMD1 091304Z 29002KT M01/M01 A3033 RMK A01 T10131014  RH  099%=      5-min Rain = 0
KMD1 091305Z 29002KT M01/M01 A3033 RMK A01 T10121013  RH  099%=      5-min Rain = 0
KMD1 091306Z 29002KT M01/M01 A3034 RMK A01 T10131014  RH  099%=      5-min Rain = 0
KMD1 091307Z 29002KT M01/M01 A3034 RMK A01 T10131014  RH  099%=      5-min Rain = 0
KMD1 091308Z 30002KT M01/M01 A3034 RMK A01 T10121014  RH  099%=      5-min Rain = 0
KMD1 091309Z 29002KT M01/M01 A3034 RMK A01 T10131014  RH  099%=      5-min Rain = 0
KMD1 091310Z 29002KT M01/M02 A3034 RMK A01 T10141015  RH  099%=      5-min Rain = 0
KMD1 091311Z 29002KT M01/M02 A3034 RMK A01 T10141016  RH  099%=      5-min Rain = 0
KMD1 091312Z 29002KT M01/M02 A3034 RMK A01 T10141016  RH  099%=      5-min Rain = 0
KMD1 091313Z 29002KT M01/M02 A3034 RMK A01 T10141015  RH  099%=      5-min Rain = 0
KMD1 091314Z 29002KT M01/M02 A3034 RMK A01 T10141015  RH  099%=      5-min Rain = 0
KMD1 091315Z 29002KT M01/M02 A3034 RMK A01 T10141015  RH  099%=      5-min Rain = 0
KMD1 091316Z 29002KT M01/M02 A3034 RMK A01 T10141016  RH  099%=      5-min Rain = 0
KMD1 091317Z 29002KT M01/M02 A3034 RMK A01 T10141015  RH  099%=      5-min Rain = 0
KMD1 091318Z 29002KT M01/M02 A3034 RMK A01 T10141016  RH  099%=      5-min Rain = 0
KMD1 091319Z 29002KT M01/M02 A3034 RMK A01 T10141015  RH  099%=      5-min Rain = 0
KMD1 091320Z 29003KT M01/M02 A3034 RMK A01 T10131015  RH  099%=      5-min Rain = 0
KMD1 091321Z 29003KT M01/M02 A3034 RMK A01 T10131015  RH  099%=      5-min Rain = 0
KMD1 091322Z 29002KT M01/M01 A3034 RMK A01 T10131014  RH  099%=      5-min Rain = 0
KMD1 091323Z 30002KT M01/M01 A3034 RMK A01 T10131014  RH  099%=      5-min Rain = 0
KMD1 091324Z 30002KT M01/M01 A3034 RMK A01 T10121014  RH  099%=      5-min Rain = 0
KMD1 091325Z 30003KT M01/M02 A3034 RMK A01 T10131015  RH  099%=      5-min Rain = 0
KMD1 091326Z 31002KT M01/M02 A3034 RMK A01 T10131015  RH  099%=      5-min Rain = 0
KMD1 091327Z 30002KT M01/M02 A3034 RMK A01 T10131015  RH  099%=      5-min Rain = 0
KMD1 091328Z 30002KT M01/M02 A3034 RMK A01 T10131015  RH  098%=      5-min Rain = 0
KMD1 091329Z 31002KT M01/M02 A3034 RMK A01 T10141016  RH  098%=      5-min Rain = 0
KMD1 091330Z 30002KT M01/M02 A3034 RMK A01 T10141016  RH  098%=      5-min Rain = 0
KMD1 091331Z 30001KT M01/M02 A3034 RMK A01 T10141016  RH  098%=      5-min Rain = 0
KMD1 091332Z 31001KT M01/M02 A3034 RMK A01 T10141016  RH  098%=      5-min Rain = 0
KMD1 091333Z 31001KT M01/M02 A3034 RMK A01 T10131016  RH  098%=      5-min Rain = 0
KMD1 091334Z 30001KT M01/M02 A3034 RMK A01 T10131016  RH  098%=      5-min Rain = 0
KMD1 091335Z 30001KT M01/M02 A3034 RMK A01 T10131016  RH  098%=      5-min Rain = 0
KMD1 091336Z 30001KT M01/M02 A3034 RMK A01 T10131015  RH  098%=      5-min Rain = 0
KMD1 091337Z 31001KT M01/M02 A3034 RMK A01 T10131015  RH  098%=      5-min Rain = 0
KMD1 091338Z 32002KT M01/M02 A3034 RMK A01 T10121015  RH  098%=      5-min Rain = 0
KMD1 091339Z 32001KT M01/M02 A3034 RMK A01 T10121015  RH  098%=      5-min Rain = 0
KMD1 091340Z 31000KT M01/M02 A3034 RMK A01 T10121015  RH  098%=      5-min Rain = 0
KMD1 091341Z 31001KT M01/M02 A3034 RMK A01 T10121015  RH  098%=      5-min Rain = 0
KMD1 091342Z 32001KT M01/M02 A3034 RMK A01 T10121015  RH  098%=      5-min Rain = 0
KMD1 091343Z 32001KT M01/M02 A3034 RMK A01 T10121015  RH  098%=      5-min Rain = 0
KMD1 091344Z 33002KT M01/M02 A3034 RMK A01 T10121015  RH  098%=      5-min Rain = 0
KMD1 091345Z 33002KT M01/M02 A3034 RMK A01 T10121016  RH  098%=      5-min Rain = 0
KMD1 091346Z 33001KT M01/M02 A3035 RMK A01 T10121016  RH  098%=      5-min Rain = 0
KMD1 091347Z 34000KT M01/M02 A3035 RMK A01 T10121015  RH  098%=      5-min Rain = 0
KMD1 091348Z 34000KT M01/M02 A3035 RMK A01 T10121015  RH  098%=      5-min Rain = 0
KMD1 091349Z 34000KT M01/M02 A3035 RMK A01 T10121015  RH  098%=      5-min Rain = 0
KMD1 091350Z 34001KT M01/M01 A3035 RMK A01 T10111014  RH  098%=      5-min Rain = 0
KMD1 091351Z 33001KT M01/M01 A3035 RMK A01 T10101014  RH  098%=      5-min Rain = 0
KMD1 091352Z 34001KT M01/M01 A3035 RMK A01 T10101014  RH  097%=      5-min Rain = 0
KMD1 091353Z 34000KT M01/M01 A3035 RMK A01 T10101014  RH  097%=      5-min Rain = 0
KMD1 091354Z 00000KT M01/M01 A3035 RMK A01 T10101014  RH  097%=      5-min Rain = 0
KMD1 091355Z 00000KT M01/M01 A3035 RMK A01 T10091013  RH  097%=      5-min Rain = 0
KMD1 091356Z 33000KT M01/M01 A3035 RMK A01 T10101014  RH  097%=      5-min Rain = 0
KMD1 091357Z 33000KT M01/M01 A3035 RMK A01 T10091014  RH  097%=      5-min Rain = 0
KMD1 091358Z 31001KT M01/M01 A3035 RMK A01 T10091014  RH  097%=      5-min Rain = 0
KMD1 091359Z 31001KT M01/M02 A3035 RMK A01 T10101015  RH  096%=      5-min Rain = 0
KMD1 091400Z 31002KT M01/M02 A3035 RMK A01 T10101015  RH  096%=      5-min Rain = 0
KMD1 091401Z 31002KT M01/M02 A3035 RMK A01 T10101016  RH  096%=      5-min Rain = 0
KMD1 091402Z 30002KT M01/M02 A3035 RMK A01 T10101016  RH  096%=      5-min Rain = 0
KMD1 091403Z 30002KT M01/M02 A3035 RMK A01 T10101016  RH  096%=      5-min Rain = 0
KMD1 091404Z 30002KT M01/M02 A3035 RMK A01 T10101016  RH  096%=      5-min Rain = 0
KMD1 091405Z 30002KT M01/M02 A3035 RMK A01 T10091016  RH  095%=      5-min Rain = 0
KMD1 091406Z 31002KT M01/M02 A3035 RMK A01 T10091015  RH  095%=      5-min Rain = 0
KMD1 091407Z 30003KT M01/M02 A3035 RMK A01 T10081015  RH  095%=      5-min Rain = 0
KMD1 091408Z 31002KT M01/M01 A3035 RMK A01 T10071014  RH  095%=      5-min Rain = 0
KMD1 091409Z 31003KT M01/M01 A3035 RMK A01 T10071014  RH  095%=      5-min Rain = 0
KMD1 091410Z 31002KT M01/M01 A3035 RMK A01 T10061014  RH  095%=      5-min Rain = 0
KMD1 091411Z 31002KT M01/M01 A3035 RMK A01 T10061014  RH  094%=      5-min Rain = 0
KMD1 091412Z 31002KT M01/M01 A3035 RMK A01 T10051014  RH  094%=      5-min Rain = 0
KMD1 091413Z 31002KT M01/M01 A3035 RMK A01 T10051013  RH  094%=      5-min Rain = 0
KMD1 091414Z 31002KT M00/M01 A3035 RMK A01 T10041013  RH  094%=      5-min Rain = 0
KMD1 091415Z 30002KT M00/M01 A3036 RMK A01 T10041013  RH  093%=      5-min Rain = 0
KMD1 091416Z 31003KT M00/M01 A3036 RMK A01 T10041013  RH  093%=      5-min Rain = 0
KMD1 091417Z 30004KT M00/M01 A3036 RMK A01 T10031014  RH  093%=      5-min Rain = 0
KMD1 091418Z 30003KT M00/M01 A3036 RMK A01 T10031014  RH  092%=      5-min Rain = 0
KMD1 091419Z 30003KT M00/M01 A3036 RMK A01 T10021014  RH  092%=      5-min Rain = 0
KMD1 091420Z 30003KT M00/M01 A3036 RMK A01 T10021014  RH  092%=      5-min Rain = 0
KMD1 091421Z 30004KT M00/M01 A3036 RMK A01 T10021014  RH  091%=      5-min Rain = 0
KMD1 091422Z 30004KT M00/M01 A3036 RMK A01 T10021014  RH  091%=      5-min Rain = 0
KMD1 091423Z 30004KT M00/M01 A3036 RMK A01 T10011014  RH  091%=      5-min Rain = 0
KMD1 091424Z 30004KT M00/M01 A3036 RMK A01 T10011014  RH  091%=      5-min Rain = 0
KMD1 091425Z 31004KT M00/M01 A3036 RMK A01 T10011014  RH  091%=      5-min Rain = 0
KMD1 091426Z 31003KT M00/M01 A3036 RMK A01 T10011014  RH  091%=      5-min Rain = 0
KMD1 091427Z 31003KT 00/01 A3036 RMK A01 T00-00-14  RH  091%=      5-min Rain = 0
KMD1 091428Z 31003KT 00/01 A3036 RMK A01 T00-00-13  RH  091%=      5-min Rain = 0
KMD1 091429Z 31003KT 00/01 A3036 RMK A01 T00000-13  RH  091%=      5-min Rain = 0
KMD1 091430Z 31003KT 00/M01 A3036 RMK A01 T00011013  RH  091%=      5-min Rain = 0
KMD1 091431Z 32004KT 00/M01 A3036 RMK A01 T00011013  RH  091%=      5-min Rain = 0
KMD1 091432Z 31004KT 00/M01 A3036 RMK A01 T00011013  RH  090%=      5-min Rain = 0
KMD1 091433Z 31004KT 00/M01 A3036 RMK A01 T00011013  RH  090%=      5-min Rain = 0
KMD1 091434Z 32004KT 00/M01 A3036 RMK A01 T00021013  RH  090%=      5-min Rain = 0
KMD1 091435Z 31003KT 00/M01 A3036 RMK A01 T00021014  RH  089%=      5-min Rain = 0
KMD1 091436Z 32003KT 00/M01 A3036 RMK A01 T00021014  RH  089%=      5-min Rain = 0
KMD1 091437Z 31004KT 00/M01 A3036 RMK A01 T00031013  RH  089%=      5-min Rain = 0
KMD1 091438Z 32004KT 00/M01 A3037 RMK A01 T00031013  RH  089%=      5-min Rain = 0
KMD1 091439Z 31004KT 00/M01 A3037 RMK A01 T00041014  RH  088%=      5-min Rain = 0
KMD1 091440Z 30003KT 00/M01 A3037 RMK A01 T00041014  RH  088%=      5-min Rain = 0
KMD1 091441Z 31004KT 01/M01 A3037 RMK A01 T00051013  RH  088%=      5-min Rain = 0
KMD1 091442Z 33005KT 01/M01 A3037 RMK A01 T00061012  RH  088%=      5-min Rain = 0
KMD1 091443Z 33005KT 01/M01 A3037 RMK A01 T00061014  RH  087%=      5-min Rain = 0
KMD1 091444Z 32004KT 01/M01 A3037 RMK A01 T00071013  RH  086%=      5-min Rain = 0
KMD1 091445Z 32005KT 01/M01 A3037 RMK A01 T00081013  RH  086%=      5-min Rain = 0
KMD1 091446Z 32007KT 01/M01 A3037 RMK A01 T00081014  RH  085%=      5-min Rain = 0
KMD1 091447Z 31006KT 01/M02 A3037 RMK A01 T00081015  RH  084%=      5-min Rain = 0
KMD1 091448Z 33006KT 01/M02 A3037 RMK A01 T00081017  RH  083%=      5-min Rain = 0
KMD1 091449Z 33005KT 01/M02 A3037 RMK A01 T00091016  RH  083%=      5-min Rain = 0
KMD1 091450Z 32004KT 01/M02 A3037 RMK A01 T00101015  RH  084%=      5-min Rain = 0
KMD1 091451Z 34004KT 01/M01 A3037 RMK A01 T00111013  RH  084%=      5-min Rain = 0
KMD1 091452Z 33004KT 01/M01 A3037 RMK A01 T00121013  RH  084%=      5-min Rain = 0
KMD1 091453Z 34004KT 01/M01 A3037 RMK A01 T00121013  RH  083%=      5-min Rain = 0
KMD1 091454Z 33004KT 01/M01 A3037 RMK A01 T00131012  RH  083%=      5-min Rain = 0
KMD1 091455Z 34004KT 01/M01 A3037 RMK A01 T00131013  RH  083%=      5-min Rain = 0
KMD1 091456Z 34007KT 01/M01 A3037 RMK A01 T00131014  RH  082%=      5-min Rain = 0
KMD1 091457Z 34007KT 01/M02 A3037 RMK A01 T00131017  RH  081%=      5-min Rain = 0
KMD1 091458Z 33006KT 01/M02 A3037 RMK A01 T00131018  RH  080%=      5-min Rain = 0
KMD1 091459Z 34005KT 01/M02 A3037 RMK A01 T00121018  RH  080%=      5-min Rain = 0
KMD1 091500Z 33007KT 01/M02 A3037 RMK A01 T00131017  RH  080%=      5-min Rain = 0
KMD1 091501Z 33007KT 01/M02 A3037 RMK A01 T00131019  RH  079%=      5-min Rain = 0
KMD1 091502Z 34006KT 01/M02 A3037 RMK A01 T00141018  RH  080%=      5-min Rain = 0
KMD1 091503Z 33005KT 01/M02 A3037 RMK A01 T00141017  RH  080%=      5-min Rain = 0
KMD1 091504Z 32006KT 02/M02 A3037 RMK A01 T00151017  RH  080%=      5-min Rain = 0
KMD1 091505Z 33006KT 02/M02 A3037 RMK A01 T00151016  RH  079%=      5-min Rain = 0
KMD1 091506Z 35005KT 02/M02 A3037 RMK A01 T00161017  RH  079%=      5-min Rain = 0
KMD1 091507Z 34006KT 02/M01 A3037 RMK A01 T00171014  RH  080%=      5-min Rain = 0
KMD1 091508Z 35004KT 02/M01 A3037 RMK A01 T00171013  RH  080%=      5-min Rain = 0
KMD1 091509Z 34005KT 02/M01 A3037 RMK A01 T00181012  RH  080%=      5-min Rain = 0
KMD1 091510Z 34007KT 02/M01 A3037 RMK A01 T00191012  RH  080%=      5-min Rain = 0
KMD1 091511Z 35007KT 02/M02 A3037 RMK A01 T00191016  RH  078%=      5-min Rain = 0
KMD1 091512Z 34008KT 02/M02 A3037 RMK A01 T00191018  RH  077%=      5-min Rain = 0
KMD1 091513Z 35006KT 02/M02 A3037 RMK A01 T00181020  RH  076%=      5-min Rain = 0
KMD1 091514Z 34006KT 02/M02 A3037 RMK A01 T00201015  RH  078%=      5-min Rain = 0
KMD1 091515Z 34006KT 02/M02 A3037 RMK A01 T00201016  RH  077%=      5-min Rain = 0
KMD1 091516Z 35006KT 02/M02 A3038 RMK A01 T00201017  RH  076%=      5-min Rain = 0
KMD1 091517Z 35007KT 02/M02 A3038 RMK A01 T00211015  RH  077%=      5-min Rain = 0
KMD1 091518Z 34007KT 02/M02 A3038 RMK A01 T00221017  RH  075%=      5-min Rain = 0
KMD1 091519Z 35007KT 02/M02 A3038 RMK A01 T00211019  RH  075%=      5-min Rain = 0
KMD1 091520Z 35007KT 02/M02 A3038 RMK A01 T00221016  RH  076%=      5-min Rain = 0
KMD1 091521Z 34008KT 02/M02 A3038 RMK A01 T00221015  RH  076%=      5-min Rain = 0
KMD1 091522Z 34008KT 02/M02 A3038 RMK A01 T00231017  RH  075%=      5-min Rain = 0
KMD1 091523Z 35007KT 02/M02 A3038 RMK A01 T00231021  RH  073%=      5-min Rain = 0
KMD1 091524Z 35008KT 02/M02 A3038 RMK A01 T00231022  RH  072%=      5-min Rain = 0
KMD1 091525Z 35007KT 02/M02 A3038 RMK A01 T00241020  RH  073%=      5-min Rain = 0
KMD1 091526Z 36006KT 02/M02 A3038 RMK A01 T00241019  RH  073%=      5-min Rain = 0
KMD1 091527Z 35008KT 03/M02 A3038 RMK A01 T00251019  RH  073%=      5-min Rain = 0
KMD1 091528Z 34009KT 03/M02 A3038 RMK A01 T00261019  RH  072%=      5-min Rain = 0
KMD1 091529Z 34009KT 03/M02 A3038 RMK A01 T00271022  RH  070%=      5-min Rain = 0
KMD1 091530Z 35008KT 03/M02 A3038 RMK A01 T00271022  RH  070%=      5-min Rain = 0
KMD1 091531Z 35009KT 03/M02 A3038 RMK A01 T00271021  RH  070%=      5-min Rain = 0
KMD1 091532Z 35008KT 03/M02 A3038 RMK A01 T00281021  RH  070%=      5-min Rain = 0
KMD1 091533Z 35008KT 03/M02 A3038 RMK A01 T00281022  RH  070%=      5-min Rain = 0
KMD1 091534Z 35010KT 03/M02 A3038 RMK A01 T00291022  RH  069%=      5-min Rain = 0
KMD1 091535Z 36009KT 03/M03 A3038 RMK A01 T00291026  RH  067%=      5-min Rain = 0
KMD1 091536Z 36008KT 03/M03 A3038 RMK A01 T00281029  RH  066%=      5-min Rain = 0
KMD1 091537Z 35009KT 03/M03 A3038 RMK A01 T00281025  RH  068%=      5-min Rain = 0
KMD1 091538Z 34008KT 03/M03 A3038 RMK A01 T00291027  RH  067%=      5-min Rain = 0
KMD1 091539Z 36008KT 03/M02 A3038 RMK A01 T00301024  RH  068%=      5-min Rain = 0
KMD1 091540Z 00010KT 03/M03 A3038 RMK A01 T00301027  RH  066%=      5-min Rain = 0
KMD1 091541Z 36009KT 03/M03 A3038 RMK A01 T00301027  RH  066%=      5-min Rain = 0
KMD1 091542Z 00010KT 03/M03 A3038 RMK A01 T00301027  RH  066%=      5-min Rain = 0
KMD1 091543Z 36008KT 03/M03 A3038 RMK A01 T00311029  RH  065%=      5-min Rain = 0
KMD1 091544Z 35009KT 03/M03 A3039 RMK A01 T00311028  RH  065%=      5-min Rain = 0
KMD1 091545Z 34007KT 03/M02 A3039 RMK A01 T00321022  RH  068%=      5-min Rain = 0
KMD1 091546Z 34010KT 03/M02 A3039 RMK A01 T00341021  RH  067%=      5-min Rain = 0
KMD1 091547Z 34011KT 03/M03 A3039 RMK A01 T00341029  RH  063%=      5-min Rain = 0
KMD1 091548Z 34011KT 03/M03 A3039 RMK A01 T00341031  RH  063%=      5-min Rain = 0
KMD1 091549Z 33010KT 03/M03 A3039 RMK A01 T00341034  RH  061%=      5-min Rain = 0
KMD1 091550Z 33010KT 03/M03 A3039 RMK A01 T00341034  RH  061%=      5-min Rain = 0
KMD1 091551Z 35009KT 03/M03 A3039 RMK A01 T00341032  RH  062%=      5-min Rain = 0
KMD1 091552Z 34010KT 04/M03 A3039 RMK A01 T00351030  RH  063%=      5-min Rain = 0
KMD1 091553Z 33010KT 04/M03 A3039 RMK A01 T00361028  RH  063%=      5-min Rain = 0
KMD1 091554Z 34009KT 04/M03 A3039 RMK A01 T00371031  RH  061%=      5-min Rain = 0
KMD1 091555Z 33009KT 04/M03 A3039 RMK A01 T00371031  RH  061%=      5-min Rain = 0
KMD1 091556Z 34008KT 04/M03 A3039 RMK A01 T00361033  RH  061%=      5-min Rain = 0
KMD1 091557Z 34007KT 04/M03 A304 RMK A01 T00361031  RH  061%=      5-min Rain = 0
KMD1 091558Z 34008KT 04/M03 A304 RMK A01 T00371028  RH  062%=      5-min Rain = 0
KMD1 091559Z 34006KT 04/M03 A304 RMK A01 T00381032  RH  060%=      5-min Rain = 0
KMD1 091600Z 34010KT 04/M03 A304 RMK A01 T00391030  RH  061%=      5-min Rain = 0
KMD1 091601Z 35010KT 04/M04 A304 RMK A01 T00391037  RH  058%=      5-min Rain = 0
KMD1 091602Z 35011KT 04/M04 A304 RMK A01 T00391035  RH  059%=      5-min Rain = 0
KMD1 091603Z 34010KT 04/M03 A304 RMK A01 T00401031  RH  060%=      5-min Rain = 0
KMD1 091604Z 35009KT 04/M03 A304 RMK A01 T00401034  RH  058%=      5-min Rain = 0
KMD1 091605Z 33009KT 04/M04 A304 RMK A01 T00401036  RH  058%=      5-min Rain = 0
KMD1 091606Z 36012KT 04/M04 A304 RMK A01 T00401035  RH  058%=      5-min Rain = 0
KMD1 091607Z 35011KT 04/M04 A304 RMK A01 T00401038  RH  057%=      5-min Rain = 0
KMD1 091608Z 35009KT 04/M04 A304 RMK A01 T00401036  RH  058%=      5-min Rain = 0
KMD1 091609Z 35011KT 04/M04 A304 RMK A01 T00411040  RH  056%=      5-min Rain = 0
KMD1 091610Z 35009KT 04/M05 A304 RMK A01 T00411045  RH  053%=      5-min Rain = 0
KMD1 091611Z 35010KT 04/M04 A304 RMK A01 T00411040  RH  056%=      5-min Rain = 0
KMD1 091612Z 34010KT 04/M04 A304 RMK A01 T00421040  RH  055%=      5-min Rain = 0
KMD1 091613Z 34009KT 04/M04 A304 RMK A01 T00431039  RH  055%=      5-min Rain = 0
KMD1 091614Z 34008KT 04/M04 A304 RMK A01 T00431035  RH  057%=      5-min Rain = 0
KMD1 091615Z 34007KT 04/M03 A304 RMK A01 T00441034  RH  057%=      5-min Rain = 0
KMD1 091616Z 34010KT 05/M03 A304 RMK A01 T00451033  RH  057%=      5-min Rain = 0
KMD1 091617Z 36010KT 05/M04 A304 RMK A01 T00451038  RH  055%=      5-min Rain = 0
KMD1 091618Z 34009KT 05/M04 A304 RMK A01 T00451038  RH  055%=      5-min Rain = 0
KMD1 091619Z 35010KT 04/M04 A304 RMK A01 T00441038  RH  055%=      5-min Rain = 0
KMD1 091620Z 34009KT 05/M04 A304 RMK A01 T00451039  RH  055%=      5-min Rain = 0
KMD1 091621Z 34009KT 04/M04 A304 RMK A01 T00441040  RH  054%=      5-min Rain = 0
KMD1 091622Z 35010KT 04/M04 A304 RMK A01 T00441040  RH  054%=      5-min Rain = 0
KMD1 091623Z 34010KT 05/M04 A304 RMK A01 T00451038  RH  055%=      5-min Rain = 0
KMD1 091624Z 35008KT 05/M04 A304 RMK A01 T00451035  RH  056%=      5-min Rain = 0
KMD1 091625Z 34009KT 05/M03 A304 RMK A01 T00461033  RH  056%=      5-min Rain = 0
KMD1 091626Z 35010KT 05/M04 A304 RMK A01 T00471038  RH  054%=      5-min Rain = 0
KMD1 091627Z 35009KT 05/M04 A304 RMK A01 T00461035  RH  056%=      5-min Rain = 0
KMD1 091628Z 35009KT 05/M03 A304 RMK A01 T00481029  RH  057%=      5-min Rain = 0
KMD1 091629Z 34009KT 05/M03 A304 RMK A01 T00501028  RH  057%=      5-min Rain = 0
KMD1 091630Z 34011KT 05/M03 A304 RMK A01 T00511031  RH  056%=      5-min Rain = 0
KMD1 091631Z 35011KT 05/M04 A304 RMK A01 T00491037  RH  054%=      5-min Rain = 0
KMD1 091632Z 34013KT 05/M03 A304 RMK A01 T00481034  RH  055%=      5-min Rain = 0
KMD1 091633Z 36011KT 05/M04 A304 RMK A01 T00481036  RH  054%=      5-min Rain = 0
KMD1 091634Z 35011KT 05/M04 A304 RMK A01 T00481036  RH  055%=      5-min Rain = 0
KMD1 091635Z 35011KT 05/M04 A304 RMK A01 T00481035  RH  055%=      5-min Rain = 0
KMD1 091636Z 36012KT 05/M04 A304 RMK A01 T00481036  RH  055%=      5-min Rain = 0
KMD1 091637Z 35010KT 05/M04 A304 RMK A01 T00471037  RH  054%=      5-min Rain = 0
KMD1 091638Z 35009KT 05/M03 A304 RMK A01 T00481032  RH  056%=      5-min Rain = 0
KMD1 091639Z 01010KT 05/M03 A304 RMK A01 T00491033  RH  055%=      5-min Rain = 0
KMD1 091640Z 01011KT 05/M03 A304 RMK A01 T00501033  RH  055%=      5-min Rain = 0
KMD1 091641Z 00009KT 05/M03 A304 RMK A01 T00491031  RH  056%=      5-min Rain = 0
KMD1 091642Z 35008KT 05/M03 A304 RMK A01 T00501029  RH  056%=      5-min Rain = 0
KMD1 091643Z 00009KT 05/M03 A304 RMK A01 T00521029  RH  056%=      5-min Rain = 0
KMD1 091644Z 35009KT 05/M03 A304 RMK A01 T00511033  RH  054%=      5-min Rain = 0
KMD1 091645Z 34008KT 05/M04 A304 RMK A01 T00501035  RH  054%=      5-min Rain = 0
KMD1 091646Z 34009KT 05/M03 A304 RMK A01 T00501032  RH  055%=      5-min Rain = 0
KMD1 091647Z 34010KT 05/M03 A304 RMK A01 T00511029  RH  057%=      5-min Rain = 0
KMD1 091648Z 33011KT 05/M03 A304 RMK A01 T00521029  RH  056%=      5-min Rain = 0
KMD1 091649Z 34010KT 05/M03 A304 RMK A01 T00511030  RH  056%=      5-min Rain = 0
KMD1 091650Z 35010KT 05/M03 A304 RMK A01 T00501033  RH  055%=      5-min Rain = 0
KMD1 091651Z 35012KT 05/M03 A304 RMK A01 T00501031  RH  056%=      5-min Rain = 0
KMD1 091652Z 35011KT 05/M03 A304 RMK A01 T00501033  RH  055%=      5-min Rain = 0
KMD1 091653Z 35009KT 05/M03 A304 RMK A01 T00501033  RH  055%=      5-min Rain = 0
KMD1 091654Z 35009KT 05/M03 A304 RMK A01 T00501030  RH  056%=      5-min Rain = 0
KMD1 091655Z 35007KT 05/M03 A304 RMK A01 T00531025  RH  057%=      5-min Rain = 0
KMD1 091656Z 35008KT 05/M03 A304 RMK A01 T00541025  RH  056%=      5-min Rain = 0
KMD1 091657Z 33011KT 06/M03 A304 RMK A01 T00551025  RH  056%=      5-min Rain = 0
KMD1 091658Z 34011KT 06/M02 A304 RMK A01 T00551020  RH  058%=      5-min Rain = 0
KMD1 091659Z 35010KT 06/M02 A304 RMK A01 T00551022  RH  058%=      5-min Rain = 0
KMD1 091700Z 36011KT 05/M03 A304 RMK A01 T00541026  RH  056%=      5-min Rain = 0
KMD1 091701Z 36010KT 05/M03 A304 RMK A01 T00541029  RH  055%=      5-min Rain = 0
KMD1 091702Z 35010KT 05/M03 A304 RMK A01 T00531029  RH  055%=      5-min Rain = 0
KMD1 091703Z 35011KT 05/M03 A304 RMK A01 T00531026  RH  057%=      5-min Rain = 0
KMD1 091704Z 35010KT 05/M03 A304 RMK A01 T00531028  RH  056%=      5-min Rain = 0
KMD1 091705Z 36009KT 05/M03 A304 RMK A01 T00531026  RH  057%=      5-min Rain = 0
KMD1 091706Z 00008KT 05/M03 A304 RMK A01 T00541027  RH  056%=      5-min Rain = 0
KMD1 091707Z 34009KT 05/M03 A304 RMK A01 T00541027  RH  056%=      5-min Rain = 0
KMD1 091708Z 33009KT 05/M03 A304 RMK A01 T00541025  RH  057%=      5-min Rain = 0
KMD1 091709Z 35009KT 05/M03 A304 RMK A01 T00541027  RH  056%=      5-min Rain = 0
KMD1 091710Z 33011KT 06/M02 A304 RMK A01 T00551021  RH  058%=      5-min Rain = 0
KMD1 091711Z 34011KT 06/M02 A304 RMK A01 T00571019  RH  058%=      5-min Rain = 0
KMD1 091712Z 34010KT 06/M02 A304 RMK A01 T00571020  RH  058%=      5-min Rain = 0
KMD1 091713Z 34009KT 06/M02 A304 RMK A01 T00571020  RH  058%=      5-min Rain = 0
KMD1 091714Z 34007KT 06/M02 A304 RMK A01 T00571023  RH  056%=      5-min Rain = 0
KMD1 091715Z 35008KT 06/M03 A304 RMK A01 T00571026  RH  055%=      5-min Rain = 0
KMD1 091716Z 35008G13KT 06/M02 A304 RMK A01 T00561024  RH  056%=      5-min Rain = 0
KMD1 091717Z 34009KT 06/M02 A304 RMK A01 T00581023  RH  056%=      5-min Rain = 0
KMD1 091718Z 34012KT 06/M02 A304 RMK A01 T00581023  RH  056%=      5-min Rain = 0
KMD1 091719Z 34011KT 06/M02 A304 RMK A01 T00571023  RH  056%=      5-min Rain = 0
KMD1 091720Z 34010KT 06/M02 A3039 RMK A01 T00571022  RH  057%=      5-min Rain = 0
KMD1 091721Z 34010KT 06/M02 A3039 RMK A01 T00571023  RH  057%=      5-min Rain = 0
KMD1 091722Z 36009KT 06/M02 A3039 RMK A01 T00571023  RH  056%=      5-min Rain = 0
KMD1 091723Z 35011KT 06/M02 A3039 RMK A01 T00571022  RH  057%=      5-min Rain = 0
KMD1 091724Z 33010KT 06/M02 A3039 RMK A01 T00581020  RH  057%=      5-min Rain = 0
KMD1 091725Z 34011KT 06/M02 A3039 RMK A01 T00581019  RH  058%=      5-min Rain = 0
KMD1 091726Z 34011KT 06/M02 A3039 RMK A01 T00591019  RH  057%=      5-min Rain = 0
KMD1 091727Z 35011KT 06/M02 A3039 RMK A01 T00591018  RH  058%=      5-min Rain = 0
KMD1 091728Z 00010KT 06/M02 A304 RMK A01 T00581022  RH  056%=      5-min Rain = 0
KMD1 091729Z 35008KT 06/M02 A3039 RMK A01 T00571020  RH  058%=      5-min Rain = 0
KMD1 091730Z 35010KT 06/M01 A3039 RMK A01 T00601014  RH  059%=      5-min Rain = 0
KMD1 091731Z 34011KT 06/M02 A3039 RMK A01 T00611017  RH  057%=      5-min Rain = 0
KMD1 091732Z 34009KT 06/M02 A3039 RMK A01 T00611018  RH  057%=      5-min Rain = 0
KMD1 091733Z 35009KT 06/M02 A3039 RMK A01 T00601017  RH  058%=      5-min Rain = 0
KMD1 091734Z 33011KT 06/M01 A3039 RMK A01 T00611013  RH  059%=      5-min Rain = 0
KMD1 091735Z 32012KT 06/M02 A3039 RMK A01 T00611017  RH  057%=      5-min Rain = 0
KMD1 091736Z 33009KT 06/M02 A3039 RMK A01 T00591019  RH  057%=      5-min Rain = 0
KMD1 091737Z 33010KT 06/M01 A3039 RMK A01 T00591013  RH  060%=      5-min Rain = 0
KMD1 091738Z 32012KT 06/M01 A3039 RMK A01 T00601012  RH  060%=      5-min Rain = 0
KMD1 091739Z 33007G12KT 06/M01 A3039 RMK A01 T00601013  RH  059%=      5-min Rain = 0
KMD1 091740Z 34007KT 06/M01 A3039 RMK A01 T00621006  RH  062%=      5-min Rain = 0
KMD1 091741Z 34009KT 06/M01 A3039 RMK A01 T00641006  RH  061%=      5-min Rain = 0
KMD1 091742Z 35009KT 07/M01 A3039 RMK A01 T00651007  RH  060%=      5-min Rain = 0
KMD1 091743Z 35009KT 07/M01 A3039 RMK A01 T00661007  RH  059%=      5-min Rain = 0
KMD1 091744Z 34009KT 07/M01 A3039 RMK A01 T00651013  RH  057%=      5-min Rain = 0
KMD1 091745Z 35009KT 06/M01 A3039 RMK A01 T00631012  RH  058%=      5-min Rain = 0
KMD1 091746Z 35011KT 07/M01 A3039 RMK A01 T00651005  RH  061%=      5-min Rain = 0
KMD1 091747Z 35011KT 07/M01 A3039 RMK A01 T00661007  RH  060%=      5-min Rain = 0
KMD1 091748Z 34008KT 07/M01 A3039 RMK A01 T00651011  RH  058%=      5-min Rain = 0
KMD1 091749Z 01006KT 06/M02 A3038 RMK A01 T00631015  RH  058%=      5-min Rain = 0
KMD1 091750Z 36005KT 06/M02 A3038 RMK A01 T00611015  RH  058%=      5-min Rain = 0
KMD1 091751Z 01008KT 06/M01 A3038 RMK A01 T00631006  RH  061%=      5-min Rain = 0
KMD1 091752Z 02010KT 07/M00 A3038 RMK A01 T00671003  RH  061%=      5-min Rain = 0
KMD1 091753Z 01010KT 07/M01 A3038 RMK A01 T00671006  RH  060%=      5-min Rain = 0
KMD1 091754Z 01008KT 07/M00 A3038 RMK A01 T00681003  RH  061%=      5-min Rain = 0
KMD1 091755Z 01008KT 07/M00 A3038 RMK A01 T00681004  RH  060%=      5-min Rain = 0
KMD1 091756Z 35013KT 07/M00 A3038 RMK A01 T00691003  RH  060%=      5-min Rain = 0
KMD1 091757Z 36011KT 07/M01 A3038 RMK A01 T00671006  RH  059%=      5-min Rain = 0
KMD1 091758Z 00011KT 07/M00 A3038 RMK A01 T00671004  RH  061%=      5-min Rain = 0
KMD1 091759Z 35010KT 07/M01 A3038 RMK A01 T00671005  RH  060%=      5-min Rain = 0
KMD1 091800Z 35007KT 07/M01 A3038 RMK A01 T00661008  RH  059%=      5-min Rain = 0
KMD1 091801Z 36007KT 07/M00 A3038 RMK A01 T00661002  RH  062%=      5-min Rain = 0
KMD1 091802Z 36011KT 07/M00 A3038 RMK A01 T00691003  RH  060%=      5-min Rain = 0
KMD1 091803Z 35011KT 07/M01 A3038 RMK A01 T00671009  RH  058%=      5-min Rain = 0
KMD1 091804Z 00009KT 07/M01 A3038 RMK A01 T00651008  RH  060%=      5-min Rain = 0
KMD1 091805Z 35006KT 07/M01 A3038 RMK A01 T00661006  RH  060%=      5-min Rain = 0
KMD1 091806Z 00007KT 07/M01 A3038 RMK A01 T00671006  RH  060%=      5-min Rain = 0
KMD1 091807Z 02009KT 07/M00 A3038 RMK A01 T00691002  RH  061%=      5-min Rain = 0
KMD1 091808Z 02011KT 07/M00 A3038 RMK A01 T00691003  RH  060%=      5-min Rain = 0
KMD1 091809Z 02008KT 07/M01 A3038 RMK A01 T00671007  RH  059%=      5-min Rain = 0
KMD1 091810Z 35011KT 07/M00 A3038 RMK A01 T00671003  RH  061%=      5-min Rain = 0
KMD1 091811Z 34012KT 07/M00 A3038 RMK A01 T00681004  RH  060%=      5-min Rain = 0
KMD1 091812Z 34010KT 07/M00 A3037 RMK A01 T00691004  RH  060%=      5-min Rain = 0
KMD1 091813Z 35010KT 07/M01 A3037 RMK A01 T00681007  RH  059%=      5-min Rain = 0
KMD1 091814Z 35010KT 07/M01 A3037 RMK A01 T00671005  RH  060%=      5-min Rain = 0
KMD1 091815Z 01010KT 07/M01 A3038 RMK A01 T00681005  RH  060%=      5-min Rain = 0
KMD1 091816Z 00007KT 07/M01 A3038 RMK A01 T00671010  RH  058%=      5-min Rain = 0
KMD1 091817Z 36009KT 07/M01 A3037 RMK A01 T00661007  RH  059%=      5-min Rain = 0
KMD1 091818Z 01005KT 07/M01 A3037 RMK A01 T00661007  RH  060%=      5-min Rain = 0
KMD1 091819Z 02005KT 07/M01 A3037 RMK A01 T00661007  RH  060%=      5-min Rain = 0
KMD1 091820Z 02010KT 07/00 A3037 RMK A01 T00680000  RH  062%=      5-min Rain = 0
KMD1 091821Z 03010KT 07/M01 A3037 RMK A01 T00681005  RH  060%=      5-min Rain = 0
KMD1 091822Z 35012KT 07/M01 A3037 RMK A01 T00661006  RH  060%=      5-min Rain = 0
KMD1 091823Z 34010KT 07/M01 A3037 RMK A01 T00661005  RH  060%=      5-min Rain = 0
KMD1 091824Z 35009KT 07/M00 A3037 RMK A01 T00671003  RH  061%=      5-min Rain = 0
KMD1 091825Z 35011KT 07/M00 A3037 RMK A01 T00671004  RH  061%=      5-min Rain = 0
KMD1 091826Z 36010KT 07/M01 A3037 RMK A01 T00671007  RH  059%=      5-min Rain = 0
KMD1 091827Z 34010KT 07/M01 A3037 RMK A01 T00671007  RH  059%=      5-min Rain = 0
KMD1 091828Z 36012KT 07/M01 A3037 RMK A01 T00671006  RH  060%=      5-min Rain = 0
KMD1 091829Z 36012KT 07/M01 A3037 RMK A01 T00671005  RH  060%=      5-min Rain = 0
KMD1 091830Z 35010KT 07/M00 A3037 RMK A01 T00671004  RH  061%=      5-min Rain = 0
KMD1 091831Z 34007KT 07/M00 A3037 RMK A01 T00671004  RH  061%=      5-min Rain = 0
KMD1 091832Z 36009KT 07/00 A3036 RMK A01 T00680000  RH  062%=      5-min Rain = 0
KMD1 091833Z 00008KT 07/M00 A3036 RMK A01 T00691001  RH  061%=      5-min Rain = 0
KMD1 091834Z 35009KT 07/M00 A3036 RMK A01 T00701002  RH  060%=      5-min Rain = 0
KMD1 091835Z 35008KT 07/M00 A3036 RMK A01 T00711003  RH  059%=      5-min Rain = 0
KMD1 091836Z 35007KT 07/M01 A3036 RMK A01 T00701005  RH  059%=      5-min Rain = 0
KMD1 091837Z 34008KT 07/M00 A3036 RMK A01 T00701002  RH  060%=      5-min Rain = 0
KMD1 091838Z 35008KT 07/M01 A3036 RMK A01 T00701007  RH  058%=      5-min Rain = 0
KMD1 091839Z 34010KT 07/M01 A3036 RMK A01 T00701007  RH  058%=      5-min Rain = 0
KMD1 091840Z 34008KT 07/M01 A3036 RMK A01 T00701006  RH  059%=      5-min Rain = 0
KMD1 091841Z 00006KT 07/M01 A3036 RMK A01 T00691006  RH  059%=      5-min Rain = 0
KMD1 091842Z 36008KT 07/M00 A3036 RMK A01 T00691001  RH  061%=      5-min Rain = 0
KMD1 091843Z 34009KT 07/01 A3036 RMK A01 T00720005  RH  062%=      5-min Rain = 0
KMD1 091844Z 35010KT 08/00 A3036 RMK A01 T00750002  RH  060%=      5-min Rain = 0
KMD1 091845Z 33010KT 07/00 A3036 RMK A01 T00740001  RH  059%=      5-min Rain = 0
KMD1 091846Z 33010KT 08/00 A3036 RMK A01 T00750001  RH  059%=      5-min Rain = 0
KMD1 091847Z 33013KT 08/M00 A3036 RMK A01 T00761002  RH  058%=      5-min Rain = 0
KMD1 091848Z 35010KT 07/M00 A3036 RMK A01 T00731004  RH  058%=      5-min Rain = 0
KMD1 091849Z 35010KT 07/M00 A3036 RMK A01 T00731003  RH  058%=      5-min Rain = 0
KMD1 091850Z 36008KT 07/M00 A3036 RMK A01 T00721004  RH  058%=      5-min Rain = 0
KMD1 091851Z 01008KT 07/M00 A3036 RMK A01 T00721004  RH  059%=      5-min Rain = 0
KMD1 091852Z 00010KT 07/M00 A3035 RMK A01 T00721002  RH  059%=      5-min Rain = 0
KMD1 091853Z 00013KT 07/M00 A3035 RMK A01 T00741001  RH  059%=      5-min Rain = 0
KMD1 091854Z 00011KT 07/M01 A3035 RMK A01 T00741007  RH  056%=      5-min Rain = 0
KMD1 091855Z 01010KT 07/M01 A3035 RMK A01 T00721008  RH  057%=      5-min Rain = 0
KMD1 091856Z 01009KT 07/M01 A3035 RMK A01 T00711007  RH  058%=      5-min Rain = 0
KMD1 091857Z 01009KT 07/M01 A3035 RMK A01 T00711008  RH  057%=      5-min Rain = 0
KMD1 091858Z 34010KT 07/M01 A3035 RMK A01 T00711006  RH  058%=      5-min Rain = 0
KMD1 091859Z 34009KT 07/M01 A3035 RMK A01 T00711006  RH  058%=      5-min Rain = 0
KMD1 091900Z 34010KT 07/M00 A3035 RMK A01 T00721003  RH  059%=      5-min Rain = 0
KMD1 091901Z 35008KT 07/00 A3035 RMK A01 T007300-0  RH  060%=      5-min Rain = 0
KMD1 091902Z 35009KT 08/M00 A3035 RMK A01 T00751001  RH  059%=      5-min Rain = 0
KMD1 091903Z 34006KT 07/M01 A3035 RMK A01 T00731007  RH  057%=      5-min Rain = 0
KMD1 091904Z 35006KT 07/M00 A3035 RMK A01 T00721004  RH  059%=      5-min Rain = 0
KMD1 091905Z 33007KT 07/M00 A3035 RMK A01 T00721003  RH  059%=      5-min Rain = 0
KMD1 091906Z 01009KT 07/00 A3035 RMK A01 T007300-0  RH  060%=      5-min Rain = 0
KMD1 091907Z 01008KT 07/M00 A3035 RMK A01 T00741002  RH  058%=      5-min Rain = 0
KMD1 091908Z 36011KT 07/00 A3034 RMK A01 T007400-0  RH  059%=      5-min Rain = 0
KMD1 091909Z 34008KT 08/M00 A3035 RMK A01 T00751004  RH  057%=      5-min Rain = 0
KMD1 091910Z 33008KT 07/M01 A3034 RMK A01 T00741005  RH  057%=      5-min Rain = 0
KMD1 091911Z 33007KT 07/M01 A3034 RMK A01 T00731005  RH  058%=      5-min Rain = 0
KMD1 091912Z 32009KT 07/M00 A3034 RMK A01 T00731002  RH  059%=      5-min Rain = 0
KMD1 091913Z 32008KT 07/M00 A3034 RMK A01 T00741001  RH  059%=      5-min Rain = 0
KMD1 091914Z 34010KT 08/M00 A3034 RMK A01 T00751003  RH  058%=      5-min Rain = 0
KMD1 091915Z 35011KT 08/00 A3034 RMK A01 T007700-0  RH  058%=      5-min Rain = 0
KMD1 091916Z 35011KT 08/M00 A3034 RMK A01 T00771004  RH  057%=      5-min Rain = 0
KMD1 091917Z 35008KT 07/M01 A3034 RMK A01 T00741008  RH  056%=      5-min Rain = 0
KMD1 091918Z 35008KT 07/M01 A3034 RMK A01 T00731007  RH  057%=      5-min Rain = 0
KMD1 091919Z 35006KT 07/M00 A3034 RMK A01 T00731003  RH  058%=      5-min Rain = 0
KMD1 091920Z 35006KT 07/M01 A3034 RMK A01 T00741007  RH  057%=      5-min Rain = 0
KMD1 091921Z 34007KT 07/M00 A3034 RMK A01 T00731002  RH  059%=      5-min Rain = 0
KMD1 091922Z 35008KT 08/01 A3034 RMK A01 T00770005  RH  061%=      5-min Rain = 0
KMD1 091923Z 35007KT 08/00 A3034 RMK A01 T00790003  RH  059%=      5-min Rain = 0
KMD1 091924Z 35007KT 08/01 A3034 RMK A01 T00800005  RH  059%=      5-min Rain = 0
KMD1 091925Z 35009KT 08/01 A3034 RMK A01 T00820006  RH  059%=      5-min Rain = 0
KMD1 091926Z 33009KT 08/M00 A3034 RMK A01 T00811001  RH  056%=      5-min Rain = 0
KMD1 091927Z 34009KT 08/00 A3034 RMK A01 T00790004  RH  059%=      5-min Rain = 0
KMD1 091928Z 33008KT 08/M00 A3034 RMK A01 T00791002  RH  057%=      5-min Rain = 0
KMD1 091929Z 32009KT 08/M01 A3034 RMK A01 T00761005  RH  057%=      5-min Rain = 0
KMD1 091930Z 32009KT 07/M01 A3034 RMK A01 T00741005  RH  057%=      5-min Rain = 0
KMD1 091931Z 33006KT 07/M00 A3034 RMK A01 T00731004  RH  058%=      5-min Rain = 0
KMD1 091932Z 34007KT 07/00 A3034 RMK A01 T007300-0  RH  060%=      5-min Rain = 0
KMD1 091933Z 33009KT 08/00 A3034 RMK A01 T00770003  RH  060%=      5-min Rain = 0
KMD1 091934Z 34010KT 08/M00 A3034 RMK A01 T00781001  RH  057%=      5-min Rain = 0
KMD1 091935Z 34008KT 08/M01 A3034 RMK A01 T00771005  RH  056%=      5-min Rain = 0
KMD1 091936Z 34006KT 08/00 A3033 RMK A01 T00760000  RH  059%=      5-min Rain = 0
KMD1 091937Z 33008KT 08/00 A3033 RMK A01 T00760000  RH  059%=      5-min Rain = 0
KMD1 091938Z 33007KT 08/00 A3033 RMK A01 T007700-0  RH  058%=      5-min Rain = 0
KMD1 091939Z 00007KT 08/00 A3033 RMK A01 T00760001  RH  059%=      5-min Rain = 0
KMD1 091940Z 01009KT 08/00 A3033 RMK A01 T00770000  RH  058%=      5-min Rain = 0
KMD1 091941Z 00014KT 08/00 A3033 RMK A01 T00780001  RH  058%=      5-min Rain = 0
KMD1 091942Z 35009KT 08/M00 A3033 RMK A01 T00781002  RH  057%=      5-min Rain = 0
KMD1 091943Z 34009KT 08/M00 A3033 RMK A01 T00771002  RH  057%=      5-min Rain = 0
KMD1 091944Z 01008KT 08/M01 A3033 RMK A01 T00771005  RH  056%=      5-min Rain = 0
KMD1 091945Z 34007KT 08/M01 A3033 RMK A01 T00751005  RH  057%=      5-min Rain = 0
KMD1 091946Z 35006KT 08/M00 A3033 RMK A01 T00751003  RH  058%=      5-min Rain = 0
KMD1 091947Z 33008KT 08/01 A3033 RMK A01 T00770005  RH  060%=      5-min Rain = 0
KMD1 091948Z 00009KT 08/M00 A3033 RMK A01 T00781001  RH  057%=      5-min Rain = 0
KMD1 091949Z 01006KT 08/M01 A3033 RMK A01 T00771005  RH  056%=      5-min Rain = 0
KMD1 091950Z 02008KT 08/M00 A3033 RMK A01 T00751004  RH  057%=      5-min Rain = 0
KMD1 091951Z 01008KT 08/M00 A3033 RMK A01 T00751003  RH  058%=      5-min Rain = 0
KMD1 091952Z 35007KT 08/M00 A3033 RMK A01 T00761003  RH  058%=      5-min Rain = 0
KMD1 091953Z 34006KT 08/M01 A3033 RMK A01 T00761006  RH  056%=      5-min Rain = 0
KMD1 091954Z 35011KT 08/00 A3033 RMK A01 T00770002  RH  059%=      5-min Rain = 0
KMD1 091955Z 35009KT 08/00 A3033 RMK A01 T00800000  RH  057%=      5-min Rain = 0
KMD1 091956Z 34009KT 08/M00 A3033 RMK A01 T00801003  RH  056%=      5-min Rain = 0
KMD1 091957Z 34007KT 08/M01 A3033 RMK A01 T00791006  RH  055%=      5-min Rain = 0
KMD1 091958Z 35008KT 08/M00 A3033 RMK A01 T00791004  RH  056%=      5-min Rain = 0
KMD1 091959Z 00010KT 08/M00 A3033 RMK A01 T00791004  RH  056%=      5-min Rain = 0
KMD1 092000Z 36009KT 08/M00 A3033 RMK A01 T00801003  RH  056%=      5-min Rain = 0
KMD1 092001Z 32010KT 08/00 A3033 RMK A01 T008000-0  RH  057%=      5-min Rain = 0
KMD1 092002Z 33008KT 08/M00 A3033 RMK A01 T00791002  RH  056%=      5-min Rain = 0
KMD1 092003Z 34008KT 08/M00 A3033 RMK A01 T00791002  RH  057%=      5-min Rain = 0
KMD1 092004Z 33008KT 08/M00 A3033 RMK A01 T00791004  RH  056%=      5-min Rain = 0
KMD1 092005Z 33009KT 08/M00 A3033 RMK A01 T00781003  RH  056%=      5-min Rain = 0
KMD1 092006Z 35009KT 08/M00 A3033 RMK A01 T00781003  RH  057%=      5-min Rain = 0
KMD1 092007Z 02010KT 08/M00 A3033 RMK A01 T00801002  RH  056%=      5-min Rain = 0
KMD1 092008Z 01006KT 08/M01 A3033 RMK A01 T00791005  RH  055%=      5-min Rain = 0
KMD1 092009Z 34008KT 08/M00 A3033 RMK A01 T00791003  RH  056%=      5-min Rain = 0
KMD1 092010Z 34011KT 08/00 A3033 RMK A01 T008100-0  RH  056%=      5-min Rain = 0
KMD1 092011Z 34008KT 08/M00 A3033 RMK A01 T00811003  RH  055%=      5-min Rain = 0
KMD1 092012Z 33009KT 08/00 A3033 RMK A01 T00800002  RH  057%=      5-min Rain = 0
KMD1 092013Z 33007KT 08/M00 A3033 RMK A01 T00801004  RH  055%=      5-min Rain = 0
KMD1 092014Z 33005KT 08/00 A3033 RMK A01 T00790000  RH  057%=      5-min Rain = 0
KMD1 092015Z 35008KT 08/00 A3033 RMK A01 T00810002  RH  058%=      5-min Rain = 0
KMD1 092016Z 01009KT 08/00 A3033 RMK A01 T00810001  RH  057%=      5-min Rain = 0
KMD1 092017Z 01009KT 08/00 A3033 RMK A01 T008200-0  RH  056%=      5-min Rain = 0
KMD1 092018Z 01009KT 08/00 A3033 RMK A01 T00820001  RH  057%=      5-min Rain = 0
KMD1 092019Z 35007KT 08/M01 A3033 RMK A01 T00801006  RH  055%=      5-min Rain = 0
KMD1 092020Z 35009KT 08/M00 A3033 RMK A01 T00791004  RH  056%=      5-min Rain = 0
KMD1 092021Z 01009KT 08/M00 A3033 RMK A01 T00801002  RH  056%=      5-min Rain = 0
KMD1 092022Z 00009KT 08/00 A3033 RMK A01 T00820002  RH  057%=      5-min Rain = 0
KMD1 092023Z 35010KT 08/M00 A3033 RMK A01 T00831001  RH  055%=      5-min Rain = 0
KMD1 092024Z 00008KT 08/M01 A3033 RMK A01 T00821005  RH  054%=      5-min Rain = 0
KMD1 092025Z 01005KT 08/M01 A3033 RMK A01 T00801007  RH  054%=      5-min Rain = 0
KMD1 092026Z 00004KT 08/M01 A3033 RMK A01 T00791005  RH  055%=      5-min Rain = 0
KMD1 092027Z 00010KT 08/M00 A3033 RMK A01 T00801004  RH  056%=      5-min Rain = 0
KMD1 092028Z 34009KT 08/M00 A3033 RMK A01 T00811001  RH  056%=      5-min Rain = 0
KMD1 092029Z 34010KT 08/M00 A3033 RMK A01 T00821002  RH  055%=      5-min Rain = 0
KMD1 092030Z 34009KT 08/M00 A3033 RMK A01 T00811003  RH  055%=      5-min Rain = 0
KMD1 092031Z 31010KT 08/00 A3033 RMK A01 T00810002  RH  058%=      5-min Rain = 0
KMD1 092032Z 31008KT 08/00 A3033 RMK A01 T008100-0  RH  056%=      5-min Rain = 0
KMD1 092033Z 31007KT 08/M00 A3033 RMK A01 T00801001  RH  056%=      5-min Rain = 0
KMD1 092034Z 31008KT 08/00 A3033 RMK A01 T00800003  RH  058%=      5-min Rain = 0
KMD1 092035Z 33007KT 08/00 A3033 RMK A01 T00810002  RH  058%=      5-min Rain = 0
KMD1 092036Z 34008KT 08/00 A3033 RMK A01 T00810000  RH  056%=      5-min Rain = 0
KMD1 092037Z 32009KT 08/00 A3033 RMK A01 T00820003  RH  057%=      5-min Rain = 0
KMD1 092038Z 34013KT 08/00 A3033 RMK A01 T00830000  RH  056%=      5-min Rain = 0
KMD1 092039Z 34011KT 08/M00 A3033 RMK A01 T00821002  RH  055%=      5-min Rain = 0
KMD1 092040Z 34008KT 08/M00 A3033 RMK A01 T00821004  RH  055%=      5-min Rain = 0
KMD1 092041Z 33006KT 08/M00 A3033 RMK A01 T00811003  RH  055%=      5-min Rain = 0
KMD1 092042Z 35008KT 08/M00 A3033 RMK A01 T00811002  RH  056%=      5-min Rain = 0
KMD1 092043Z 36007KT 08/M00 A3033 RMK A01 T00821004  RH  055%=      5-min Rain = 0
KMD1 092044Z 36005KT 08/M01 A3033 RMK A01 T00811007  RH  054%=      5-min Rain = 0
KMD1 092045Z 01007KT 08/M00 A3033 RMK A01 T00811004  RH  055%=      5-min Rain = 0
KMD1 092046Z 36008KT 08/00 A3033 RMK A01 T00820002  RH  057%=      5-min Rain = 0
KMD1 092047Z 35008KT 08/M00 A3033 RMK A01 T00831003  RH  055%=      5-min Rain = 0
KMD1 092048Z 36007KT 08/M00 A3033 RMK A01 T00831001  RH  056%=      5-min Rain = 0
KMD1 092049Z 36008KT 08/M00 A3033 RMK A01 T00831002  RH  055%=      5-min Rain = 0
KMD1 092050Z 01010KT 08/M00 A3033 RMK A01 T00831001  RH  055%=      5-min Rain = 0
KMD1 092051Z 01010KT 08/00 A3033 RMK A01 T00830000  RH  056%=      5-min Rain = 0
KMD1 092052Z 01008KT 08/00 A3033 RMK A01 T00840000  RH  056%=      5-min Rain = 0
KMD1 092053Z 02007KT 08/M00 A3033 RMK A01 T00831003  RH  055%=      5-min Rain = 0
KMD1 092054Z 03007KT 08/M00 A3033 RMK A01 T00821001  RH  056%=      5-min Rain = 0
KMD1 092055Z 01008KT 08/00 A3033 RMK A01 T00830003  RH  057%=      5-min Rain = 0
KMD1 092056Z 01008KT 08/00 A3033 RMK A01 T00840000  RH  056%=      5-min Rain = 0
KMD1 092057Z 00010KT 09/00 A3033 RMK A01 T00850003  RH  056%=      5-min Rain = 0
KMD1 092058Z 35009KT 09/00 A3033 RMK A01 T00860001  RH  055%=      5-min Rain = 0
KMD1 092059Z 35009KT 09/M00 A3033 RMK A01 T00851002  RH  054%=      5-min Rain = 0
KMD1 092100Z 33009KT 08/00 A3033 RMK A01 T00840002  RH  056%=      5-min Rain = 0
KMD1 092101Z 34009KT 09/00 A3032 RMK A01 T00850002  RH  056%=      5-min Rain = 0
KMD1 092102Z 33012KT 09/00 A3033 RMK A01 T00850003  RH  056%=      5-min Rain = 0
KMD1 092103Z 33010KT 08/00 A3033 RMK A01 T008400-0  RH  055%=      5-min Rain = 0
KMD1 092104Z 32008KT 08/M00 A3033 RMK A01 T00821002  RH  055%=      5-min Rain = 0
KMD1 092105Z 34006KT 08/00 A3033 RMK A01 T00820001  RH  057%=      5-min Rain = 0
KMD1 092106Z 34006KT 08/00 A3033 RMK A01 T00820001  RH  056%=      5-min Rain = 0
KMD1 092107Z 35008KT 08/00 A3033 RMK A01 T00840001  RH  056%=      5-min Rain = 0
KMD1 092108Z 36008KT 08/M01 A3033 RMK A01 T00831005  RH  054%=      5-min Rain = 0
KMD1 092109Z 36005KT 08/M00 A3033 RMK A01 T00821004  RH  055%=      5-min Rain = 0
KMD1 092110Z 36010KT 08/M00 A3033 RMK A01 T00811002  RH  056%=      5-min Rain = 0
KMD1 092111Z 01008KT 08/M00 A3033 RMK A01 T00811003  RH  055%=      5-min Rain = 0
KMD1 092112Z 02008KT 08/M00 A3033 RMK A01 T00821001  RH  056%=      5-min Rain = 0
KMD1 092113Z 01007KT 08/M00 A3033 RMK A01 T00821001  RH  056%=      5-min Rain = 0
KMD1 092114Z 00010KT 08/00 A3033 RMK A01 T008300-0  RH  056%=      5-min Rain = 0
KMD1 092115Z 01009KT 08/M00 A3033 RMK A01 T00831002  RH  055%=      5-min Rain = 0
KMD1 092116Z 00006KT 08/M00 A3032 RMK A01 T00831001  RH  056%=      5-min Rain = 0
KMD1 092117Z 35007KT 08/M00 A3032 RMK A01 T00831001  RH  056%=      5-min Rain = 0
KMD1 092118Z 35005KT 08/M00 A3032 RMK A01 T00831003  RH  055%=      5-min Rain = 0
KMD1 092119Z 35007KT 08/00 A3032 RMK A01 T00830000  RH  056%=      5-min Rain = 0
KMD1 092120Z 33009KT 09/00 A3032 RMK A01 T00850001  RH  056%=      5-min Rain = 0
KMD1 092121Z 32007KT 09/00 A3032 RMK A01 T00850000  RH  055%=      5-min Rain = 0
KMD1 092122Z 33009KT 08/00 A3032 RMK A01 T00840002  RH  056%=      5-min Rain = 0
KMD1 092123Z 00007KT 08/00 A3032 RMK A01 T00840003  RH  057%=      5-min Rain = 0
KMD1 092124Z 00007KT 09/00 A3032 RMK A01 T00850001  RH  056%=      5-min Rain = 0
KMD1 092125Z 36007KT 09/00 A3032 RMK A01 T00850001  RH  056%=      5-min Rain = 0
KMD1 092126Z 34007KT 09/00 A3032 RMK A01 T00850001  RH  056%=      5-min Rain = 0
KMD1 092127Z 34007KT 09/00 A3032 RMK A01 T00850002  RH  056%=      5-min Rain = 0
KMD1 092128Z 34007KT 08/00 A3032 RMK A01 T00840001  RH  056%=      5-min Rain = 0
KMD1 092129Z 35010KT 08/01 A3032 RMK A01 T00840005  RH  057%=      5-min Rain = 0
KMD1 092130Z 33008KT 08/00 A3032 RMK A01 T00840000  RH  055%=      5-min Rain = 0
KMD1 092131Z 35007KT 08/00 A3032 RMK A01 T00840001  RH  056%=      5-min Rain = 0
KMD1 092132Z 34007KT 08/00 A3032 RMK A01 T00830002  RH  057%=      5-min Rain = 0
KMD1 092133Z 35007KT 08/00 A3032 RMK A01 T00840003  RH  057%=      5-min Rain = 0
KMD1 092134Z 35009KT 09/01 A3032 RMK A01 T00860006  RH  057%=      5-min Rain = 0
KMD1 092135Z 35010KT 09/00 A3032 RMK A01 T00860001  RH  055%=      5-min Rain = 0
KMD1 092136Z 34007KT 08/M00 A3032 RMK A01 T00841001  RH  055%=      5-min Rain = 0
KMD1 092137Z 33009KT 08/00 A3032 RMK A01 T00840001  RH  056%=      5-min Rain = 0
KMD1 092138Z 32011KT 08/00 A3032 RMK A01 T00840003  RH  057%=      5-min Rain = 0
KMD1 092139Z 32010KT 08/00 A3032 RMK A01 T00820002  RH  057%=      5-min Rain = 0
KMD1 092140Z 32008KT 08/01 A3032 RMK A01 T00820005  RH  058%=      5-min Rain = 0
KMD1 092141Z 36008KT 08/01 A3032 RMK A01 T00830007  RH  059%=      5-min Rain = 0
KMD1 092142Z 36007KT 08/M00 A3032 RMK A01 T00831001  RH  056%=      5-min Rain = 0
KMD1 092143Z 36008KT 08/M00 A3032 RMK A01 T00811001  RH  056%=      5-min Rain = 0
KMD1 092144Z 36009KT 08/00 A3032 RMK A01 T00810000  RH  057%=      5-min Rain = 0
KMD1 092145Z 36009KT 08/00 A3032 RMK A01 T00810000  RH  057%=      5-min Rain = 0
KMD1 092146Z 36008KT 08/00 A3032 RMK A01 T00820003  RH  057%=      5-min Rain = 0
KMD1 092147Z 35010KT 08/00 A3032 RMK A01 T00820002  RH  057%=      5-min Rain = 0
KMD1 092148Z 35008KT 08/00 A3032 RMK A01 T00820001  RH  057%=      5-min Rain = 0
KMD1 092149Z 00008KT 08/M00 A3032 RMK A01 T00821001  RH  056%=      5-min Rain = 0
KMD1 092150Z 36007KT 08/00 A3032 RMK A01 T00810001  RH  057%=      5-min Rain = 0
KMD1 092151Z 34009KT 08/00 A3032 RMK A01 T00810001  RH  057%=      5-min Rain = 0
KMD1 092152Z 34008KT 08/00 A3032 RMK A01 T00810001  RH  057%=      5-min Rain = 0
KMD1 092153Z 34006KT 08/00 A3032 RMK A01 T008100-0  RH  057%=      5-min Rain = 0
KMD1 092154Z 36007KT 08/00 A3032 RMK A01 T00800003  RH  058%=      5-min Rain = 0
KMD1 092155Z 01006KT 08/00 A3032 RMK A01 T00810002  RH  058%=      5-min Rain = 0
KMD1 092156Z 36007KT 08/00 A3032 RMK A01 T00810001  RH  057%=      5-min Rain = 0
KMD1 092157Z 34007KT 08/00 A3032 RMK A01 T00810001  RH  057%=      5-min Rain = 0
KMD1 092158Z 33008KT 08/01 A3032 RMK A01 T00820006  RH  059%=      5-min Rain = 0
KMD1 092159Z 34008KT 08/00 A3032 RMK A01 T00830004  RH  057%=      5-min Rain = 0
KMD1 092200Z 35008KT 08/00 A3032 RMK A01 T00820003  RH  057%=      5-min Rain = 0
KMD1 092201Z 35005KT 08/00 A3032 RMK A01 T00820003  RH  057%=      5-min Rain = 0
KMD1 092202Z 35004KT 08/00 A3032 RMK A01 T00820003  RH  057%=      5-min Rain = 0
KMD1 092203Z 32007KT 08/00 A3032 RMK A01 T00820003  RH  058%=      5-min Rain = 0
KMD1 092204Z 33008KT 08/01 A3032 RMK A01 T00820005  RH  058%=      5-min Rain = 0
KMD1 092205Z 34006KT 08/00 A3032 RMK A01 T00820004  RH  058%=      5-min Rain = 0
KMD1 092206Z 33006KT 08/00 A3032 RMK A01 T00810002  RH  057%=      5-min Rain = 0
KMD1 092207Z 32008KT 08/00 A3032 RMK A01 T00810003  RH  058%=      5-min Rain = 0
KMD1 092208Z 33007KT 08/01 A3032 RMK A01 T00800006  RH  059%=      5-min Rain = 0
KMD1 092209Z 33006KT 08/01 A3032 RMK A01 T00800006  RH  059%=      5-min Rain = 0
KMD1 092210Z 34007KT 08/01 A3032 RMK A01 T00810006  RH  059%=      5-min Rain = 0
KMD1 092211Z 36007KT 08/00 A3032 RMK A01 T00810003  RH  058%=      5-min Rain = 0
KMD1 092212Z 36006KT 08/00 A3032 RMK A01 T00810002  RH  058%=      5-min Rain = 0
KMD1 092213Z 36006KT 08/00 A3032 RMK A01 T00810003  RH  058%=      5-min Rain = 0
KMD1 092214Z 36007KT 08/00 A3032 RMK A01 T00800001  RH  057%=      5-min Rain = 0
KMD1 092215Z 34004KT 08/M00 A3032 RMK A01 T00801001  RH  057%=      5-min Rain = 0
KMD1 092216Z 32008KT 08/00 A3032 RMK A01 T00800004  RH  059%=      5-min Rain = 0
KMD1 092217Z 32008KT 08/01 A3033 RMK A01 T00800007  RH  060%=      5-min Rain = 0
KMD1 092218Z 33008KT 08/00 A3033 RMK A01 T00800003  RH  058%=      5-min Rain = 0
KMD1 092219Z 33007KT 08/00 A3033 RMK A01 T00800002  RH  058%=      5-min Rain = 0
KMD1 092220Z 33008KT 08/00 A3033 RMK A01 T00790004  RH  059%=      5-min Rain = 0
KMD1 092221Z 33008KT 08/00 A3033 RMK A01 T00790004  RH  059%=      5-min Rain = 0
KMD1 092222Z 33008KT 08/00 A3033 RMK A01 T00790001  RH  058%=      5-min Rain = 0
KMD1 092223Z 34007KT 08/M00 A3033 RMK A01 T00781001  RH  057%=      5-min Rain = 0
KMD1 092224Z 36007KT 08/00 A3033 RMK A01 T00770001  RH  058%=      5-min Rain = 0
KMD1 092225Z 36009KT 08/00 A3033 RMK A01 T00780001  RH  058%=      5-min Rain = 0
KMD1 092226Z 36007KT 08/00 A3033 RMK A01 T00770001  RH  058%=      5-min Rain = 0
KMD1 092227Z 35007KT 08/00 A3033 RMK A01 T00780003  RH  059%=      5-min Rain = 0
KMD1 092228Z 34008KT 08/00 A3033 RMK A01 T00780004  RH  059%=      5-min Rain = 0
KMD1 092229Z 34007KT 08/01 A3033 RMK A01 T00790005  RH  060%=      5-min Rain = 0
KMD1 092230Z 35008KT 08/01 A3033 RMK A01 T00780005  RH  060%=      5-min Rain = 0
KMD1 092231Z 35008KT 08/00 A3033 RMK A01 T00780003  RH  059%=      5-min Rain = 0
KMD1 092232Z 34006KT 08/00 A3033 RMK A01 T00770003  RH  059%=      5-min Rain = 0
KMD1 092233Z 33005KT 08/00 A3033 RMK A01 T00770003  RH  059%=      5-min Rain = 0
KMD1 092234Z 34008KT 08/00 A3033 RMK A01 T00770004  RH  060%=      5-min Rain = 0
KMD1 092235Z 33007KT 08/00 A3033 RMK A01 T00770004  RH  060%=      5-min Rain = 0
KMD1 092236Z 34008KT 08/00 A3033 RMK A01 T00770004  RH  060%=      5-min Rain = 0
KMD1 092237Z 34008KT 08/00 A3033 RMK A01 T00770003  RH  060%=      5-min Rain = 0
KMD1 092238Z 33007KT 08/00 A3033 RMK A01 T00760004  RH  060%=      5-min Rain = 0
KMD1 092239Z 33005KT 08/01 A3033 RMK A01 T00760008  RH  062%=      5-min Rain = 0
KMD1 092240Z 33006KT 08/01 A3033 RMK A01 T00770008  RH  062%=      5-min Rain = 0
KMD1 092241Z 32008KT 08/01 A3033 RMK A01 T00770006  RH  061%=      5-min Rain = 0
KMD1 092242Z 34008KT 08/01 A3033 RMK A01 T00770006  RH  061%=      5-min Rain = 0
KMD1 092243Z 00008KT 08/01 A3033 RMK A01 T00770007  RH  061%=      5-min Rain = 0
KMD1 092244Z 36007KT 08/01 A3033 RMK A01 T00770006  RH  061%=      5-min Rain = 0
KMD1 092245Z 35007KT 08/01 A3033 RMK A01 T00770007  RH  061%=      5-min Rain = 0
KMD1 092246Z 35008KT 08/01 A3033 RMK A01 T00760005  RH  061%=      5-min Rain = 0
KMD1 092247Z 35009KT 08/01 A3033 RMK A01 T00760005  RH  061%=      5-min Rain = 0
KMD1 092248Z 36008KT 08/01 A3033 RMK A01 T00760005  RH  061%=      5-min Rain = 0
KMD1 092249Z 35009KT 08/01 A3033 RMK A01 T00750006  RH  061%=      5-min Rain = 0
KMD1 092250Z 35008KT 08/01 A3033 RMK A01 T00750006  RH  061%=      5-min Rain = 0
KMD1 092251Z 35008KT 08/01 A3033 RMK A01 T00750006  RH  062%=      5-min Rain = 0
KMD1 092252Z 36008KT 08/01 A3033 RMK A01 T00750007  RH  062%=      5-min Rain = 0
KMD1 092253Z 36007KT 07/01 A3033 RMK A01 T00740006  RH  062%=      5-min Rain = 0
KMD1 092254Z 34008KT 07/01 A3033 RMK A01 T00740008  RH  063%=      5-min Rain = 0
KMD1 092255Z 33008KT 07/01 A3033 RMK A01 T00740008  RH  063%=      5-min Rain = 0
KMD1 092256Z 33008KT 07/01 A3033 RMK A01 T00740010  RH  064%=      5-min Rain = 0
KMD1 092257Z 34006KT 07/01 A3033 RMK A01 T00730007  RH  063%=      5-min Rain = 0
KMD1 092258Z 33006KT 07/01 A3033 RMK A01 T00730010  RH  064%=      5-min Rain = 0
KMD1 092259Z 33007KT 07/01 A3033 RMK A01 T00730007  RH  063%=      5-min Rain = 0
KMD1 092300Z 33007KT 07/01 A3033 RMK A01 T00730008  RH  063%=      5-min Rain = 0
KMD1 092301Z 33006KT 07/01 A3033 RMK A01 T00730007  RH  063%=      5-min Rain = 0
KMD1 092302Z 33008KT 07/01 A3033 RMK A01 T00730007  RH  063%=      5-min Rain = 0
KMD1 092303Z 34008KT 07/01 A3033 RMK A01 T00720006  RH  063%=      5-min Rain = 0
KMD1 092304Z 34006KT 07/01 A3033 RMK A01 T00720007  RH  063%=      5-min Rain = 0
KMD1 092305Z 33006KT 07/01 A3033 RMK A01 T00710008  RH  064%=      5-min Rain = 0
KMD1 092306Z 32007KT 07/01 A3033 RMK A01 T00710008  RH  064%=      5-min Rain = 0
KMD1 092307Z 33006KT 07/01 A3033 RMK A01 T00710007  RH  064%=      5-min Rain = 0
KMD1 092308Z 33007KT 07/01 A3033 RMK A01 T00710007  RH  064%=      5-min Rain = 0
KMD1 092309Z 33006KT 07/01 A3033 RMK A01 T00710007  RH  064%=      5-min Rain = 0
KMD1 092310Z 33007KT 07/01 A3033 RMK A01 T00700007  RH  064%=      5-min Rain = 0
KMD1 092311Z 33006KT 07/01 A3033 RMK A01 T00700006  RH  064%=      5-min Rain = 0
KMD1 092312Z 33007KT 07/01 A3033 RMK A01 T00690006  RH  064%=      5-min Rain = 0
KMD1 092313Z 33006KT 07/01 A3033 RMK A01 T00690007  RH  065%=      5-min Rain = 0
KMD1 092314Z 33006KT 07/01 A3033 RMK A01 T00690006  RH  064%=      5-min Rain = 0
KMD1 092315Z 33006KT 07/01 A3033 RMK A01 T00680006  RH  064%=      5-min Rain = 0
KMD1 092316Z 33005KT 07/01 A3033 RMK A01 T00680007  RH  065%=      5-min Rain = 0
KMD1 092317Z 34006KT 07/01 A3033 RMK A01 T00680008  RH  065%=      5-min Rain = 0
KMD1 092318Z 34005KT 07/01 A3033 RMK A01 T00670006  RH  065%=      5-min Rain = 0
KMD1 092319Z 34006KT 07/01 A3033 RMK A01 T00670005  RH  065%=      5-min Rain = 0
KMD1 092320Z 34005KT 07/01 A3033 RMK A01 T00670005  RH  065%=      5-min Rain = 0
KMD1 092321Z 34005KT 07/01 A3033 RMK A01 T00670007  RH  066%=      5-min Rain = 0
KMD1 092322Z 34007KT 07/01 A3033 RMK A01 T00660007  RH  066%=      5-min Rain = 0
KMD1 092323Z 34006KT 07/01 A3033 RMK A01 T00650006  RH  066%=      5-min Rain = 0
KMD1 092324Z 35005KT 07/01 A3033 RMK A01 T00650007  RH  066%=      5-min Rain = 0
KMD1 092325Z 34006KT 06/01 A3033 RMK A01 T00640007  RH  067%=      5-min Rain = 0
KMD1 092326Z 34005KT 06/01 A3033 RMK A01 T00630007  RH  067%=      5-min Rain = 0
KMD1 092327Z 35006KT 06/01 A3033 RMK A01 T00620007  RH  067%=      5-min Rain = 0
KMD1 092328Z 34004KT 06/01 A3033 RMK A01 T00620006  RH  067%=      5-min Rain = 0
KMD1 092329Z 34004KT 06/01 A3033 RMK A01 T00620007  RH  068%=      5-min Rain = 0
KMD1 092330Z 34005KT 06/01 A3033 RMK A01 T00620007  RH  068%=      5-min Rain = 0
KMD1 092331Z 34004KT 06/01 A3033 RMK A01 T00610007  RH  068%=      5-min Rain = 0
KMD1 092332Z 34004KT 06/01 A3033 RMK A01 T00600007  RH  069%=      5-min Rain = 0
KMD1 092333Z 33004KT 06/01 A3033 RMK A01 T00600007  RH  069%=      5-min Rain = 0
KMD1 092334Z 33004KT 06/01 A3033 RMK A01 T00600006  RH  068%=      5-min Rain = 0
KMD1 092335Z 34004KT 06/01 A3033 RMK A01 T00600006  RH  068%=      5-min Rain = 0
KMD1 092336Z 33004KT 06/01 A3033 RMK A01 T00600006  RH  069%=      5-min Rain = 0
KMD1 092337Z 33004KT 06/01 A3034 RMK A01 T00590006  RH  069%=      5-min Rain = 0
KMD1 092338Z 33004KT 06/01 A3034 RMK A01 T00590005  RH  068%=      5-min Rain = 0
KMD1 092339Z 33004KT 06/01 A3034 RMK A01 T00600006  RH  068%=      5-min Rain = 0
KMD1 092340Z 33004KT 06/01 A3034 RMK A01 T00590006  RH  069%=      5-min Rain = 0
KMD1 092341Z 33005KT 06/01 A3034 RMK A01 T00590006  RH  069%=      5-min Rain = 0
KMD1 092342Z 33004KT 06/01 A3034 RMK A01 T00580006  RH  069%=      5-min Rain = 0
KMD1 092343Z 32004KT 06/01 A3034 RMK A01 T00580006  RH  069%=      5-min Rain = 0
KMD1 092344Z 33004KT 06/01 A3034 RMK A01 T00570007  RH  070%=      5-min Rain = 0
KMD1 092345Z 33004KT 06/01 A3034 RMK A01 T00560006  RH  070%=      5-min Rain = 0
KMD1 092346Z 33004KT 06/01 A3034 RMK A01 T00550006  RH  070%=      5-min Rain = 0
KMD1 092347Z 33004KT 06/01 A3034 RMK A01 T00550006  RH  071%=      5-min Rain = 0
KMD1 092348Z 33004KT 06/01 A3034 RMK A01 T00550006  RH  071%=      5-min Rain = 0
KMD1 092349Z 33003KT 06/01 A3034 RMK A01 T00550006  RH  071%=      5-min Rain = 0
KMD1 092350Z 33003KT 06/01 A3034 RMK A01 T00550006  RH  071%=      5-min Rain = 0
KMD1 092351Z 33003KT 06/01 A3034 RMK A01 T00550007  RH  071%=      5-min Rain = 0
KMD1 092352Z 33004KT 05/01 A3034 RMK A01 T00540007  RH  071%=      5-min Rain = 0
KMD1 092353Z 32003KT 05/01 A3034 RMK A01 T00540006  RH  071%=      5-min Rain = 0
KMD1 092354Z 32003KT 05/01 A3034 RMK A01 T00540006  RH  071%=      5-min Rain = 0
KMD1 092355Z 32003KT 05/01 A3034 RMK A01 T00530006  RH  071%=      5-min Rain = 0
KMD1 092356Z 32003KT 05/01 A3034 RMK A01 T00530006  RH  072%=      5-min Rain = 0
KMD1 092357Z 33002KT 05/01 A3034 RMK A01 T00530005  RH  072%=      5-min Rain = 0
KMD1 092358Z 32003KT 05/01 A3034 RMK A01 T00530005  RH  072%=      5-min Rain = 0
KMD1 092359Z 32002KT 05/01 A3034 RMK A01 T00520005  RH  072%=      5-min Rain = 0
KMD1 100000Z 32002KT 05/01 A3034 RMK A01 T00520005  RH  072%=      5-min Rain = 0
KMD1 100001Z 31002KT 05/01 A3034 RMK A01 T00520005  RH  072%=      5-min Rain = 0
KMD1 100002Z 31002KT 05/01 A3034 RMK A01 T00520005  RH  072%=      5-min Rain = 0
KMD1 100003Z 31002KT 05/01 A3034 RMK A01 T00520005  RH  072%=      5-min Rain = 0
KMD1 100004Z 31002KT 05/01 A3034 RMK A01 T00520005  RH  072%=      5-min Rain = 0
KMD1 100005Z 30003KT 05/01 A3034 RMK A01 T00520005  RH  072%=      5-min Rain = 0
KMD1 100006Z 31003KT 05/01 A3035 RMK A01 T00520005  RH  072%=      5-min Rain = 0
KMD1 100007Z 30003KT 05/00 A3035 RMK A01 T00510004  RH  072%=      5-min Rain = 0
KMD1 100008Z 30003KT 05/01 A3035 RMK A01 T00510005  RH  072%=      5-min Rain = 0
KMD1 100009Z 30002KT 05/01 A3035 RMK A01 T00510005  RH  072%=      5-min Rain = 0
KMD1 100010Z 30003KT 05/01 A3035 RMK A01 T00510006  RH  072%=      5-min Rain = 0
KMD1 100011Z 30003KT 05/01 A3035 RMK A01 T00500006  RH  073%=      5-min Rain = 0
KMD1 100012Z 30003KT 05/01 A3035 RMK A01 T00480006  RH  074%=      5-min Rain = 0
KMD1 100013Z 30003KT 05/00 A3035 RMK A01 T00450004  RH  075%=      5-min Rain = 0
KMD1 100014Z 30003KT 04/01 A3035 RMK A01 T00440005  RH  076%=      5-min Rain = 0
KMD1 100015Z 30003KT 04/01 A3035 RMK A01 T00440005  RH  076%=      5-min Rain = 0
KMD1 100016Z 29003KT 04/00 A3035 RMK A01 T00430004  RH  076%=      5-min Rain = 0
KMD1 100017Z 29003KT 04/00 A3035 RMK A01 T00410004  RH  077%=      5-min Rain = 0
KMD1 100018Z 29003KT 04/00 A3035 RMK A01 T00400004  RH  077%=      5-min Rain = 0
KMD1 100019Z 29003KT 04/00 A3035 RMK A01 T00400004  RH  077%=      5-min Rain = 0
KMD1 100020Z 29003KT 04/00 A3035 RMK A01 T00390004  RH  078%=      5-min Rain = 0
KMD1 100021Z 29003KT 04/00 A3035 RMK A01 T00390004  RH  078%=      5-min Rain = 0
KMD1 100022Z 29003KT 04/00 A3035 RMK A01 T00390004  RH  078%=      5-min Rain = 0
KMD1 100023Z 29003KT 04/00 A3035 RMK A01 T00380004  RH  078%=      5-min Rain = 0
KMD1 100024Z 29003KT 04/00 A3035 RMK A01 T00370004  RH  079%=      5-min Rain = 0
KMD1 100025Z 29003KT 04/00 A3035 RMK A01 T00360003  RH  079%=      5-min Rain = 0
KMD1 100026Z 29003KT 04/00 A3035 RMK A01 T00350003  RH  080%=      5-min Rain = 0
KMD1 100027Z 30003KT 04/00 A3035 RMK A01 T00350004  RH  080%=      5-min Rain = 0
KMD1 100028Z 30003KT 04/00 A3035 RMK A01 T00360004  RH  080%=      5-min Rain = 0
KMD1 100029Z 30003KT 04/01 A3035 RMK A01 T00360005  RH  080%=      5-min Rain = 0
KMD1 100030Z 31004KT 04/01 A3035 RMK A01 T00370005  RH  079%=      5-min Rain = 0
KMD1 100031Z 31004KT 04/00 A3035 RMK A01 T00370004  RH  079%=      5-min Rain = 0
KMD1 100032Z 31004KT 04/00 A3035 RMK A01 T00370004  RH  079%=      5-min Rain = 0
KMD1 100033Z 31004KT 04/00 A3035 RMK A01 T00360004  RH  080%=      5-min Rain = 0
KMD1 100034Z 32004KT 04/00 A3035 RMK A01 T00350004  RH  080%=      5-min Rain = 0
KMD1 100035Z 32003KT 04/01 A3035 RMK A01 T00350005  RH  080%=      5-min Rain = 0
KMD1 100036Z 31003KT 04/01 A3035 RMK A01 T00360005  RH  080%=      5-min Rain = 0
KMD1 100037Z 31003KT 04/00 A3035 RMK A01 T00360004  RH  079%=      5-min Rain = 0
KMD1 100038Z 31003KT 04/00 A3035 RMK A01 T00360002  RH  079%=      5-min Rain = 0
KMD1 100039Z 31003KT 03/00 A3035 RMK A01 T00340000  RH  079%=      5-min Rain = 0
KMD1 100040Z 31003KT 03/00 A3035 RMK A01 T00310000  RH  080%=      5-min Rain = 0
KMD1 100041Z 31003KT 03/00 A3035 RMK A01 T00310001  RH  081%=      5-min Rain = 0
KMD1 100042Z 31003KT 03/00 A3035 RMK A01 T00300001  RH  082%=      5-min Rain = 0
KMD1 100043Z 31003KT 03/00 A3035 RMK A01 T00290002  RH  082%=      5-min Rain = 0
KMD1 100044Z 31003KT 03/00 A3035 RMK A01 T00290002  RH  083%=      5-min Rain = 0
KMD1 100045Z 32003KT 03/00 A3035 RMK A01 T00280001  RH  083%=      5-min Rain = 0
KMD1 100046Z 32003KT 03/00 A3035 RMK A01 T00270002  RH  083%=      5-min Rain = 0
KMD1 100047Z 32003KT 03/00 A3035 RMK A01 T00270002  RH  084%=      5-min Rain = 0
KMD1 100048Z 32003KT 03/00 A3035 RMK A01 T00270002  RH  084%=      5-min Rain = 0
KMD1 100049Z 33003KT 03/00 A3035 RMK A01 T00270003  RH  084%=      5-min Rain = 0
KMD1 100050Z 33004KT 03/00 A3035 RMK A01 T00270003  RH  084%=      5-min Rain = 0
KMD1 100051Z 33004KT 03/00 A3035 RMK A01 T00270003  RH  084%=      5-min Rain = 0
KMD1 100052Z 33004KT 03/00 A3035 RMK A01 T00270004  RH  084%=      5-min Rain = 0
KMD1 100053Z 34003KT 03/00 A3035 RMK A01 T00280003  RH  084%=      5-min Rain = 0
KMD1 100054Z 34003KT 03/00 A3035 RMK A01 T00280004  RH  084%=      5-min Rain = 0
KMD1 100055Z 34002KT 03/00 A3035 RMK A01 T00290003  RH  083%=      5-min Rain = 0
KMD1 100056Z 35002KT 03/00 A3035 RMK A01 T00280002  RH  083%=      5-min Rain = 0
KMD1 100057Z 35002KT 03/00 A3035 RMK A01 T00280002  RH  083%=      5-min Rain = 0
KMD1 100058Z 35002KT 03/00 A3035 RMK A01 T00270002  RH  083%=      5-min Rain = 0
KMD1 100059Z 34002KT 03/00 A3035 RMK A01 T00270002  RH  084%=      5-min Rain = 0
KMD1 100100Z 34002KT 03/00 A3035 RMK A01 T00270003  RH  084%=      5-min Rain = 0
KMD1 100101Z 34002KT 03/00 A3035 RMK A01 T00270003  RH  084%=      5-min Rain = 0
KMD1 100102Z 34002KT 03/00 A3035 RMK A01 T00270003  RH  084%=      5-min Rain = 0
KMD1 100103Z 34003KT 03/00 A3035 RMK A01 T00260003  RH  085%=      5-min Rain = 0
KMD1 100104Z 34003KT 03/00 A3035 RMK A01 T00260003  RH  085%=      5-min Rain = 0
KMD1 100105Z 34003KT 03/00 A3035 RMK A01 T00250003  RH  085%=      5-min Rain = 0
KMD1 100106Z 34003KT 03/00 A3035 RMK A01 T00260004  RH  085%=      5-min Rain = 0
KMD1 100107Z 34004KT 03/00 A3035 RMK A01 T00260004  RH  085%=      5-min Rain = 0
KMD1 100108Z 34003KT 03/00 A3035 RMK A01 T00270004  RH  085%=      5-min Rain = 0
KMD1 100109Z 35004KT 03/01 A3035 RMK A01 T00280005  RH  085%=      5-min Rain = 0
KMD1 100110Z 35004KT 03/01 A3035 RMK A01 T00290005  RH  084%=      5-min Rain = 0
KMD1 100111Z 34004KT 03/00 A3035 RMK A01 T00290004  RH  083%=      5-min Rain = 0
KMD1 100112Z 34004KT 03/00 A3036 RMK A01 T00300003  RH  083%=      5-min Rain = 0
KMD1 100113Z 34004KT 03/00 A3036 RMK A01 T00290002  RH  083%=      5-min Rain = 0
KMD1 100114Z 34004KT 03/00 A3036 RMK A01 T00270001  RH  083%=      5-min Rain = 0
KMD1 100115Z 34004KT 03/00 A3036 RMK A01 T00260000  RH  083%=      5-min Rain = 0
KMD1 100116Z 34004KT 02/M00 A3036 RMK A01 T00241002  RH  083%=      5-min Rain = 0
KMD1 100117Z 34004KT 02/M00 A3036 RMK A01 T00221002  RH  084%=      5-min Rain = 0
KMD1 100118Z 34004KT 02/M00 A3036 RMK A01 T00201003  RH  085%=      5-min Rain = 0
KMD1 100119Z 34004KT 02/M00 A3036 RMK A01 T00191002  RH  085%=      5-min Rain = 0
KMD1 100120Z 33004KT 02/M00 A3036 RMK A01 T00201001  RH  086%=      5-min Rain = 0
KMD1 100121Z 33003KT 02/M00 A3036 RMK A01 T00191001  RH  086%=      5-min Rain = 0
KMD1 100122Z 33003KT 02/00 A3036 RMK A01 T001900-0  RH  087%=      5-min Rain = 0
KMD1 100123Z 33002KT 02/00 A3036 RMK A01 T00200001  RH  087%=      5-min Rain = 0
KMD1 100124Z 33003KT 02/00 A3036 RMK A01 T00210002  RH  087%=      5-min Rain = 0
KMD1 100125Z 33003KT 02/00 A3036 RMK A01 T00220003  RH  087%=      5-min Rain = 0
KMD1 100126Z 34004KT 02/00 A3036 RMK A01 T00230003  RH  087%=      5-min Rain = 0
KMD1 100127Z 34003KT 02/00 A3036 RMK A01 T00230003  RH  087%=      5-min Rain = 0
KMD1 100128Z 34003KT 02/00 A3036 RMK A01 T00240002  RH  086%=      5-min Rain = 0
KMD1 100129Z 34003KT 02/00 A3036 RMK A01 T00240001  RH  085%=      5-min Rain = 0
KMD1 100130Z 34003KT 02/00 A3036 RMK A01 T00240001  RH  085%=      5-min Rain = 0
KMD1 100131Z 34003KT 02/00 A3036 RMK A01 T00240001  RH  085%=      5-min Rain = 0
KMD1 100132Z 34003KT 02/00 A3036 RMK A01 T00230000  RH  085%=      5-min Rain = 0
KMD1 100133Z 34003KT 02/00 A3036 RMK A01 T00220000  RH  085%=      5-min Rain = 0
KMD1 100134Z 34003KT 02/00 A3036 RMK A01 T00220000  RH  086%=      5-min Rain = 0
KMD1 100135Z 34003KT 02/00 A3036 RMK A01 T00210000  RH  086%=      5-min Rain = 0
KMD1 100136Z 34003KT 02/00 A3036 RMK A01 T00210000  RH  086%=      5-min Rain = 0
KMD1 100137Z 34003KT 02/00 A3036 RMK A01 T00210001  RH  086%=      5-min Rain = 0
KMD1 100138Z 34003KT 02/00 A3036 RMK A01 T00210001  RH  086%=      5-min Rain = 0
KMD1 100139Z 34003KT 02/00 A3036 RMK A01 T00220002  RH  086%=      5-min Rain = 0
KMD1 100140Z 34003KT 02/00 A3036 RMK A01 T00220001  RH  086%=      5-min Rain = 0
KMD1 100141Z 35003KT 02/00 A3037 RMK A01 T00220001  RH  086%=      5-min Rain = 0
KMD1 100142Z 34003KT 02/00 A3037 RMK A01 T00220001  RH  086%=      5-min Rain = 0
KMD1 100143Z 34003KT 02/00 A3037 RMK A01 T00240003  RH  086%=      5-min Rain = 0
KMD1 100144Z 34002KT 02/00 A3037 RMK A01 T00240001  RH  085%=      5-min Rain = 0
KMD1 100145Z 33002KT 02/M00 A3037 RMK A01 T00221001  RH  085%=      5-min Rain = 0
KMD1 100146Z 33002KT 02/M00 A3037 RMK A01 T00221001  RH  085%=      5-min Rain = 0
KMD1 100147Z 33002KT 02/00 A3037 RMK A01 T002100-0  RH  086%=      5-min Rain = 0
KMD1 100148Z 33002KT 02/M00 A3037 RMK A01 T00211001  RH  086%=      5-min Rain = 0
KMD1 100149Z 32002KT 02/M00 A3037 RMK A01 T00201001  RH  086%=      5-min Rain = 0
KMD1 100150Z 32002KT 02/M00 A3037 RMK A01 T00201001  RH  086%=      5-min Rain = 0
KMD1 100151Z 31002KT 02/M00 A3037 RMK A01 T00201001  RH  086%=      5-min Rain = 0
KMD1 100152Z 31002KT 02/M00 A3037 RMK A01 T00191001  RH  086%=      5-min Rain = 0
KMD1 100153Z 31002KT 02/M00 A3037 RMK A01 T00191001  RH  087%=      5-min Rain = 0
KMD1 100154Z 31001KT 02/M00 A3037 RMK A01 T00181002  RH  087%=      5-min Rain = 0
KMD1 100155Z 32001KT 02/M00 A3037 RMK A01 T00171003  RH  087%=      5-min Rain = 0
KMD1 100156Z 34001KT 02/M00 A3037 RMK A01 T00161004  RH  087%=      5-min Rain = 0
KMD1 100157Z 34000KT 02/M00 A3037 RMK A01 T00151002  RH  088%=      5-min Rain = 0
KMD1 100158Z 34001KT 02/M00 A3037 RMK A01 T00151002  RH  089%=      5-min Rain = 0
KMD1 100159Z 35001KT 02/M00 A3037 RMK A01 T00151001  RH  089%=      5-min Rain = 0
KMD1 100200Z 35001KT 01/M00 A3037 RMK A01 T00141002  RH  089%=      5-min Rain = 0
KMD1 100201Z 35001KT 01/M00 A3037 RMK A01 T00141002  RH  089%=      5-min Rain = 0
KMD1 100202Z 35000KT 01/M00 A3037 RMK A01 T00131002  RH  089%=      5-min Rain = 0
KMD1 100203Z 35000KT 01/M00 A3038 RMK A01 T00131003  RH  090%=      5-min Rain = 0
KMD1 100204Z 35000KT 01/M00 A3038 RMK A01 T00121003  RH  090%=      5-min Rain = 0
KMD1 100205Z 35001KT 01/M00 A3038 RMK A01 T00111004  RH  090%=      5-min Rain = 0
KMD1 100206Z 35002KT 01/M00 A3038 RMK A01 T00111003  RH  090%=      5-min Rain = 0
KMD1 100207Z 35002KT 01/M00 A3038 RMK A01 T00101004  RH  090%=      5-min Rain = 0
KMD1 100208Z 35002KT 01/M00 A3038 RMK A01 T00101004  RH  090%=      5-min Rain = 0
KMD1 100209Z 35002KT 01/M01 A3038 RMK A01 T00101005  RH  090%=      5-min Rain = 0
KMD1 100210Z 34002KT 01/M01 A3038 RMK A01 T00091005  RH  090%=      5-min Rain = 0
KMD1 100211Z 34002KT 01/M01 A3038 RMK A01 T00081006  RH  090%=      5-min Rain = 0
KMD1 100212Z 34002KT 01/M01 A3038 RMK A01 T00071007  RH  091%=      5-min Rain = 0
KMD1 100213Z 34002KT 01/M01 A3038 RMK A01 T00061007  RH  091%=      5-min Rain = 0
KMD1 100214Z 33001KT 01/M01 A3038 RMK A01 T00061007  RH  091%=      5-min Rain = 0
KMD1 100215Z 34002KT 01/M01 A3038 RMK A01 T00061007  RH  091%=      5-min Rain = 0
KMD1 100216Z 33001KT 01/M01 A3038 RMK A01 T00051008  RH  091%=      5-min Rain = 0
KMD1 100217Z 33001KT 00/M01 A3038 RMK A01 T00041008  RH  091%=      5-min Rain = 0
KMD1 100218Z 32001KT 00/M01 A3038 RMK A01 T00031009  RH  092%=      5-min Rain = 0
KMD1 100219Z 31001KT 00/M01 A3038 RMK A01 T00031009  RH  092%=      5-min Rain = 0
KMD1 100220Z 32001KT 00/M01 A3038 RMK A01 T00031009  RH  092%=      5-min Rain = 0
KMD1 100221Z 32001KT 00/M01 A3038 RMK A01 T00031008  RH  092%=      5-min Rain = 0
KMD1 100222Z 32000KT 00/M01 A3038 RMK A01 T00021008  RH  092%=      5-min Rain = 0
KMD1 100223Z 34000KT 00/M01 A3038 RMK A01 T00021008  RH  093%=      5-min Rain = 0
KMD1 100224Z 35001KT 00/M01 A3038 RMK A01 T00021008  RH  093%=      5-min Rain = 0
KMD1 100225Z 36001KT 00/M01 A3038 RMK A01 T00021008  RH  093%=      5-min Rain = 0
KMD1 100226Z 35002KT 00/M01 A3038 RMK A01 T00021008  RH  093%=      5-min Rain = 0
KMD1 100227Z 35002KT 00/M01 A3038 RMK A01 T00021009  RH  093%=      5-min Rain = 0
KMD1 100228Z 35002KT 00/M01 A3038 RMK A01 T00011009  RH  093%=      5-min Rain = 0
KMD1 100229Z 35002KT 00/M01 A3038 RMK A01 T00011010  RH  093%=      5-min Rain = 0
KMD1 100230Z 34002KT 00/M01 A3038 RMK A01 T00011009  RH  093%=      5-min Rain = 0
KMD1 100231Z 34002KT 00/M01 A3038 RMK A01 T00011008  RH  093%=      5-min Rain = 0
KMD1 100232Z 34002KT 00/M01 A3038 RMK A01 T00021007  RH  094%=      5-min Rain = 0
KMD1 100233Z 35002KT 00/M01 A3038 RMK A01 T00021008  RH  094%=      5-min Rain = 0
KMD1 100234Z 34002KT 00/M01 A3038 RMK A01 T00021008  RH  094%=      5-min Rain = 0
KMD1 100235Z 34002KT 00/M01 A3038 RMK A01 T00021007  RH  094%=      5-min Rain = 0
KMD1 100236Z 34002KT 00/M01 A3038 RMK A01 T00021007  RH  094%=      5-min Rain = 0
KMD1 100237Z 34002KT 00/M01 A3038 RMK A01 T00021007  RH  094%=      5-min Rain = 0
KMD1 100238Z 34002KT 00/M01 A3038 RMK A01 T00021007  RH  094%=      5-min Rain = 0
KMD1 100239Z 34002KT 00/M01 A3038 RMK A01 T00021007  RH  094%=      5-min Rain = 0
KMD1 100240Z 34002KT 00/M01 A3038 RMK A01 T00021006  RH  094%=      5-min Rain = 0
KMD1 100241Z 34002KT 00/M01 A3038 RMK A01 T00021006  RH  094%=      5-min Rain = 0
KMD1 100242Z 34002KT 00/M01 A3038 RMK A01 T00021006  RH  094%=      5-min Rain = 0
KMD1 100243Z 34002KT 00/M01 A3038 RMK A01 T00031006  RH  094%=      5-min Rain = 0
KMD1 100244Z 34002KT 00/M01 A3038 RMK A01 T00031006  RH  094%=      5-min Rain = 0
KMD1 100245Z 34002KT 00/M01 A3038 RMK A01 T00031006  RH  094%=      5-min Rain = 0
KMD1 100246Z 34002KT 00/M01 A3038 RMK A01 T00041005  RH  094%=      5-min Rain = 0
KMD1 100247Z 34002KT 00/M01 A3038 RMK A01 T00041005  RH  094%=      5-min Rain = 0
KMD1 100248Z 34002KT 00/M01 A3038 RMK A01 T00041005  RH  094%=      5-min Rain = 0
KMD1 100249Z 34001KT 01/M01 A3038 RMK A01 T00051005  RH  094%=      5-min Rain = 0
KMD1 100250Z 35002KT 00/M01 A3038 RMK A01 T00041007  RH  093%=      5-min Rain = 0
KMD1 100251Z 00002KT 00/01 A3038 RMK A01 T00000-12  RH  092%=      5-min Rain = 0
KMD1 100252Z 00002KT M00/M01 A3038 RMK A01 T10011012  RH  092%=      5-min Rain = 0
KMD1 100253Z 00002KT M00/M01 A3038 RMK A01 T10011012  RH  093%=      5-min Rain = 0
KMD1 100254Z 00003KT M00/M01 A3038 RMK A01 T10011011  RH  093%=      5-min Rain = 0
KMD1 100255Z 36002KT M00/M01 A3038 RMK A01 T10011011  RH  093%=      5-min Rain = 0
KMD1 100256Z 35001KT M00/M01 A3038 RMK A01 T10011011  RH  093%=      5-min Rain = 0
KMD1 100257Z 35001KT M00/M01 A3038 RMK A01 T10011010  RH  094%=      5-min Rain = 0
KMD1 100258Z 35001KT M00/M01 A3038 RMK A01 T10011010  RH  094%=      5-min Rain = 0
KMD1 100259Z 34001KT M00/M01 A3038 RMK A01 T10021011  RH  094%=      5-min Rain = 0
KMD1 100300Z 35001KT M00/M01 A3038 RMK A01 T10021011  RH  094%=      5-min Rain = 0
KMD1 100301Z 35002KT M00/M01 A3038 RMK A01 T10031012  RH  094%=      5-min Rain = 0
KMD1 100302Z 34001KT M00/M01 A3038 RMK A01 T10041013  RH  094%=      5-min Rain = 0
KMD1 100303Z 34001KT M00/M01 A3038 RMK A01 T10041013  RH  094%=      5-min Rain = 0
KMD1 100304Z 34001KT M00/M01 A3038 RMK A01 T10041013  RH  094%=      5-min Rain = 0
KMD1 100305Z 33001KT M00/M01 A3038 RMK A01 T10041012  RH  094%=      5-min Rain = 0
KMD1 100306Z 33001KT M00/M01 A3038 RMK A01 T10041011  RH  095%=      5-min Rain = 0
KMD1 100307Z 33001KT M00/M01 A3038 RMK A01 T10041012  RH  095%=      5-min Rain = 0
KMD1 100308Z 33001KT M00/M01 A3038 RMK A01 T10041011  RH  095%=      5-min Rain = 0
KMD1 100309Z 33001KT M00/M01 A3038 RMK A01 T10031011  RH  095%=      5-min Rain = 0
KMD1 100310Z 32001KT M00/M01 A3038 RMK A01 T10031010  RH  095%=      5-min Rain = 0
KMD1 100311Z 31001KT M00/M01 A3038 RMK A01 T10031010  RH  095%=      5-min Rain = 0
KMD1 100312Z 30001KT M00/M01 A3038 RMK A01 T10021009  RH  095%=      5-min Rain = 0
KMD1 100313Z 29001KT M00/M01 A3038 RMK A01 T10021009  RH  095%=      5-min Rain = 0
KMD1 100314Z 28001KT M00/M01 A3039 RMK A01 T10021009  RH  095%=      5-min Rain = 0
KMD1 100315Z 28001KT M00/M01 A3039 RMK A01 T10021009  RH  095%=      5-min Rain = 0
KMD1 100316Z 28001KT M00/M01 A3039 RMK A01 T10021009  RH  095%=      5-min Rain = 0
KMD1 100317Z 28001KT M00/M01 A3039 RMK A01 T10031010  RH  095%=      5-min Rain = 0
KMD1 100318Z 27001KT M00/M01 A3039 RMK A01 T10041010  RH  095%=      5-min Rain = 0
KMD1 100319Z 27001KT M00/M01 A3039 RMK A01 T10041011  RH  095%=      5-min Rain = 0
KMD1 100320Z 27001KT M01/M01 A3039 RMK A01 T10061013  RH  095%=      5-min Rain = 0
KMD1 100321Z 26002KT M01/M01 A3039 RMK A01 T10071014  RH  095%=      5-min Rain = 0
KMD1 100322Z 26001KT M01/M02 A3039 RMK A01 T10081015  RH  095%=      5-min Rain = 0
KMD1 100323Z 25001KT M01/M02 A3039 RMK A01 T10081015  RH  095%=      5-min Rain = 0
KMD1 100324Z 24002KT M01/M02 A3039 RMK A01 T10081015  RH  095%=      5-min Rain = 0
KMD1 100325Z 24001KT M01/M02 A3039 RMK A01 T10081015  RH  096%=      5-min Rain = 0
KMD1 100326Z 24001KT M01/M01 A3039 RMK A01 T10081014  RH  096%=      5-min Rain = 0
KMD1 100327Z 23001KT M01/M01 A3039 RMK A01 T10081014  RH  096%=      5-min Rain = 0
KMD1 100328Z 23001KT M01/M01 A3039 RMK A01 T10081014  RH  096%=      5-min Rain = 0
KMD1 100329Z 23002KT M01/M02 A3039 RMK A01 T10091015  RH  096%=      5-min Rain = 0
KMD1 100330Z 23002KT M01/M02 A3039 RMK A01 T10091015  RH  096%=      5-min Rain = 0
KMD1 100331Z 24002KT M01/M02 A3039 RMK A01 T10091015  RH  096%=      5-min Rain = 0
KMD1 100332Z 24002KT M01/M02 A3039 RMK A01 T10091015  RH  096%=      5-min Rain = 0
KMD1 100333Z 24003KT M01/M02 A3039 RMK A01 T10091015  RH  096%=      5-min Rain = 0
KMD1 100334Z 24003KT M01/M01 A3039 RMK A01 T10091014  RH  096%=      5-min Rain = 0
KMD1 100335Z 24003KT M01/M01 A3039 RMK A01 T10081013  RH  097%=      5-min Rain = 0
KMD1 100336Z 24003KT M01/M01 A3039 RMK A01 T10071012  RH  097%=      5-min Rain = 0
KMD1 100337Z 24002KT M01/M01 A3039 RMK A01 T10071012  RH  097%=      5-min Rain = 0
KMD1 100338Z 24003KT M01/M01 A3039 RMK A01 T10071012  RH  097%=      5-min Rain = 0
KMD1 100339Z 24002KT M01/M01 A3039 RMK A01 T10071012  RH  097%=      5-min Rain = 0
KMD1 100340Z 24002KT M01/M01 A3039 RMK A01 T10071012  RH  097%=      5-min Rain = 0
KMD1 100341Z 24002KT M01/M01 A3039 RMK A01 T10081013  RH  097%=      5-min Rain = 0
KMD1 100342Z 24002KT M01/M01 A3039 RMK A01 T10081013  RH  097%=      5-min Rain = 0
KMD1 100343Z 24002KT M01/M01 A3039 RMK A01 T10081013  RH  097%=      5-min Rain = 0
KMD1 100344Z 25003KT M01/M01 A3039 RMK A01 T10081013  RH  097%=      5-min Rain = 0
KMD1 100345Z 25003KT M01/M01 A3039 RMK A01 T10081013  RH  097%=      5-min Rain = 0
KMD1 100346Z 25003KT M01/M01 A3039 RMK A01 T10091013  RH  097%=      5-min Rain = 0
KMD1 100347Z 25003KT M01/M01 A3039 RMK A01 T10081012  RH  097%=      5-min Rain = 0
KMD1 100348Z 25003KT M01/M01 A3039 RMK A01 T10081012  RH  097%=      5-min Rain = 0
KMD1 100349Z 25004KT M01/M01 A3039 RMK A01 T10081012  RH  097%=      5-min Rain = 0
KMD1 100350Z 24004KT M01/M01 A3039 RMK A01 T10081012  RH  097%=      5-min Rain = 0
KMD1 100351Z 24003KT M01/M01 A3039 RMK A01 T10081012  RH  097%=      5-min Rain = 0
KMD1 100352Z 24003KT M01/M01 A3039 RMK A01 T10081012  RH  097%=      5-min Rain = 0
KMD1 100353Z 24003KT M01/M01 A3039 RMK A01 T10081012  RH  097%=      5-min Rain = 0
KMD1 100354Z 24003KT M01/M01 A3039 RMK A01 T10081012  RH  097%=      5-min Rain = 0
KMD1 100355Z 23003KT M01/M01 A3039 RMK A01 T10091013  RH  097%=      5-min Rain = 0
KMD1 100356Z 24003KT M01/M01 A3039 RMK A01 T10101014  RH  097%=      5-min Rain = 0
KMD1 100357Z 24003KT M01/M02 A3039 RMK A01 T10111015  RH  097%=      5-min Rain = 0
KMD1 100358Z 24003KT M01/M02 A3039 RMK A01 T10111015  RH  097%=      5-min Rain = 0
KMD1 100359Z 24003KT M01/M02 A3039 RMK A01 T10111015  RH  097%=      5-min Rain = 0
KMD1 100400Z 24003KT M01/M02 A3039 RMK A01 T10111015  RH  097%=      5-min Rain = 0
KMD1 100401Z 25003KT M01/M02 A3039 RMK A01 T10111015  RH  097%=      5-min Rain = 0
KMD1 100402Z 25003KT M01/M02 A3039 RMK A01 T10111015  RH  098%=      5-min Rain = 0
KMD1 100403Z 25003KT M01/M02 A3039 RMK A01 T10111015  RH  098%=      5-min Rain = 0
KMD1 100404Z 25003KT M01/M02 A3039 RMK A01 T10121015  RH  097%=      5-min Rain = 0
KMD1 100405Z 26003KT M01/M02 A3039 RMK A01 T10121016  RH  097%=      5-min Rain = 0
KMD1 100406Z 26003KT M01/M02 A3039 RMK A01 T10131016  RH  097%=      5-min Rain = 0
KMD1 100407Z 26003KT M01/M02 A3039 RMK A01 T10131017  RH  097%=      5-min Rain = 0
KMD1 100408Z 26003KT M01/M02 A3039 RMK A01 T10131017  RH  097%=      5-min Rain = 0
KMD1 100409Z 26003KT M01/M02 A3039 RMK A01 T10131017  RH  098%=      5-min Rain = 0
KMD1 100410Z 27003KT M01/M02 A3039 RMK A01 T10131017  RH  098%=      5-min Rain = 0
KMD1 100411Z 26003KT M01/M02 A3039 RMK A01 T10141017  RH  098%=      5-min Rain = 0
KMD1 100412Z 26003KT M01/M02 A3039 RMK A01 T10141017  RH  098%=      5-min Rain = 0
KMD1 100413Z 27003KT M01/M02 A304 RMK A01 T10141017  RH  098%=      5-min Rain = 0
KMD1 100414Z 26003KT M01/M02 A304 RMK A01 T10131017  RH  098%=      5-min Rain = 0
KMD1 100415Z 27002KT M01/M02 A304 RMK A01 T10141017  RH  098%=      5-min Rain = 0
KMD1 100416Z 26003KT M01/M02 A304 RMK A01 T10141017  RH  098%=      5-min Rain = 0
KMD1 100417Z 25002KT M01/M02 A304 RMK A01 T10141017  RH  098%=      5-min Rain = 0
KMD1 100418Z 24002KT M01/M02 A304 RMK A01 T10141017  RH  098%=      5-min Rain = 0
KMD1 100419Z 24002KT M01/M02 A304 RMK A01 T10141017  RH  098%=      5-min Rain = 0
KMD1 100420Z 24002KT M01/M02 A304 RMK A01 T10131016  RH  098%=      5-min Rain = 0
KMD1 100421Z 24003KT M01/M02 A304 RMK A01 T10141017  RH  098%=      5-min Rain = 0
KMD1 100422Z 24002KT M01/M02 A304 RMK A01 T10141017  RH  098%=      5-min Rain = 0
KMD1 100423Z 25002KT M01/M02 A304 RMK A01 T10131016  RH  098%=      5-min Rain = 0
KMD1 100424Z 24002KT M01/M02 A304 RMK A01 T10131016  RH  098%=      5-min Rain = 0
KMD1 100425Z 24002KT M01/M02 A304 RMK A01 T10131015  RH  098%=      5-min Rain = 0
KMD1 100426Z 25002KT M01/M02 A304 RMK A01 T10121015  RH  098%=      5-min Rain = 0
KMD1 100427Z 25002KT M01/M02 A304 RMK A01 T10131015  RH  098%=      5-min Rain = 0
KMD1 100428Z 24002KT M01/M02 A304 RMK A01 T10131016  RH  098%=      5-min Rain = 0
KMD1 100429Z 24002KT M01/M02 A304 RMK A01 T10131015  RH  098%=      5-min Rain = 0
KMD1 100430Z 24002KT M01/M02 A304 RMK A01 T10131016  RH  098%=      5-min Rain = 0
KMD1 100431Z 24002KT M01/M02 A304 RMK A01 T10131016  RH  098%=      5-min Rain = 0
KMD1 100432Z 24002KT M01/M02 A304 RMK A01 T10131016  RH  098%=      5-min Rain = 0
KMD1 100433Z 24002KT M01/M02 A304 RMK A01 T10141017  RH  098%=      5-min Rain = 0
KMD1 100434Z 24002KT M01/M02 A304 RMK A01 T10141017  RH  098%=      5-min Rain = 0
KMD1 100435Z 24003KT M02/M02 A304 RMK A01 T10151018  RH  098%=      5-min Rain = 0
KMD1 100436Z 24003KT M02/M02 A304 RMK A01 T10151018  RH  098%=      5-min Rain = 0
KMD1 100437Z 24003KT M02/M02 A304 RMK A01 T10151018  RH  098%=      5-min Rain = 0
KMD1 100438Z 24003KT M02/M02 A304 RMK A01 T10151018  RH  098%=      5-min Rain = 0
KMD1 100439Z 24004KT M02/M02 A304 RMK A01 T10151018  RH  098%=      5-min Rain = 0
KMD1 100440Z 25004KT M02/M02 A304 RMK A01 T10151018  RH  098%=      5-min Rain = 0
KMD1 100441Z 26003KT M02/M02 A304 RMK A01 T10151017  RH  098%=      5-min Rain = 0
KMD1 100442Z 26003KT M01/M02 A304 RMK A01 T10141017  RH  098%=      5-min Rain = 0
KMD1 100443Z 26003KT M01/M02 A304 RMK A01 T10141016  RH  098%=      5-min Rain = 0
KMD1 100444Z 26003KT M01/M02 A304 RMK A01 T10141016  RH  098%=      5-min Rain = 0
KMD1 100445Z 27003KT M01/M02 A304 RMK A01 T10141016  RH  098%=      5-min Rain = 0
KMD1 100446Z 26003KT M01/M02 A304 RMK A01 T10131015  RH  098%=      5-min Rain = 0
KMD1 100447Z 26004KT M01/M02 A304 RMK A01 T10131015  RH  098%=      5-min Rain = 0
KMD1 100448Z 25003KT M01/M02 A304 RMK A01 T10131015  RH  098%=      5-min Rain = 0
KMD1 100449Z 26003KT M01/M02 A304 RMK A01 T10131016  RH  098%=      5-min Rain = 0
KMD1 100450Z 28002KT M01/M02 A304 RMK A01 T10131015  RH  098%=      5-min Rain = 0
KMD1 100451Z 27002KT M01/M02 A304 RMK A01 T10131015  RH  098%=      5-min Rain = 0
KMD1 100452Z 27002KT M01/M02 A304 RMK A01 T10141017  RH  098%=      5-min Rain = 0
KMD1 100453Z 28003KT M02/M02 A304 RMK A01 T10151018  RH  098%=      5-min Rain = 0
KMD1 100454Z 27003KT M02/M02 A304 RMK A01 T10161020  RH  098%=      5-min Rain = 0
KMD1 100455Z 26003KT M02/M02 A304 RMK A01 T10171021  RH  098%=      5-min Rain = 0
KMD1 100456Z 27002KT M02/M02 A304 RMK A01 T10181021  RH  098%=      5-min Rain = 0
KMD1 100457Z 27003KT M02/M02 A304 RMK A01 T10181021  RH  098%=      5-min Rain = 0
KMD1 100458Z 28003KT M02/M02 A304 RMK A01 T10181021  RH  098%=      5-min Rain = 0
KMD1 100459Z 28003KT M02/M02 A304 RMK A01 T10181021  RH  098%=      5-min Rain = 0
KMD1 100500Z 28003KT M02/M02 A304 RMK A01 T10191022  RH  098%=      5-min Rain = 0
KMD1 100501Z 28003KT M02/M02 A304 RMK A01 T10191022  RH  098%=      5-min Rain = 0
KMD1 100502Z 28003KT M02/M02 A304 RMK A01 T10191022  RH  098%=      5-min Rain = 0
KMD1 100503Z 28003KT M02/M02 A304 RMK A01 T10201023  RH  098%=      5-min Rain = 0
KMD1 100504Z 28003KT M02/M02 A304 RMK A01 T10201022  RH  098%=      5-min Rain = 0
KMD1 100505Z 27003KT M02/M02 A304 RMK A01 T10191022  RH  098%=      5-min Rain = 0
KMD1 100506Z 27003KT M02/M02 A304 RMK A01 T10191022  RH  098%=      5-min Rain = 0
KMD1 100507Z 27003KT M02/M02 A304 RMK A01 T10191021  RH  098%=      5-min Rain = 0
KMD1 100508Z 28003KT M02/M02 A304 RMK A01 T10181020  RH  098%=      5-min Rain = 0
KMD1 100509Z 28003KT M02/M02 A304 RMK A01 T10181020  RH  098%=      5-min Rain = 0
KMD1 100510Z 28002KT M02/M02 A304 RMK A01 T10171020  RH  098%=      5-min Rain = 0
KMD1 100511Z 28002KT M02/M02 A304 RMK A01 T10181020  RH  098%=      5-min Rain = 0
KMD1 100512Z 27002KT M02/M02 A304 RMK A01 T10191022  RH  098%=      5-min Rain = 0
KMD1 100513Z 26003KT M02/M02 A304 RMK A01 T10191022  RH  098%=      5-min Rain = 0
KMD1 100514Z 26003KT M02/M02 A304 RMK A01 T10191022  RH  098%=      5-min Rain = 0
KMD1 100515Z 27002KT M02/M02 A304 RMK A01 T10201022  RH  098%=      5-min Rain = 0
KMD1 100516Z 27002KT M02/M02 A304 RMK A01 T10191022  RH  098%=      5-min Rain = 0
KMD1 100517Z 26002KT M02/M02 A304 RMK A01 T10181021  RH  098%=      5-min Rain = 0
KMD1 100518Z 26002KT M02/M02 A304 RMK A01 T10181020  RH  098%=      5-min Rain = 0
KMD1 100519Z 26002KT M02/M02 A304 RMK A01 T10171020  RH  098%=      5-min Rain = 0
KMD1 100520Z 25002KT M02/M02 A304 RMK A01 T10171020  RH  098%=      5-min Rain = 0
KMD1 100521Z 25002KT M02/M02 A304 RMK A01 T10171020  RH  098%=      5-min Rain = 0
KMD1 100522Z 25001KT M02/M02 A304 RMK A01 T10171020  RH  098%=      5-min Rain = 0
KMD1 100523Z 24002KT M02/M02 A304 RMK A01 T10171020  RH  098%=      5-min Rain = 0
KMD1 100524Z 24002KT M02/M02 A304 RMK A01 T10171020  RH  098%=      5-min Rain = 0
KMD1 100525Z 24002KT M02/M02 A304 RMK A01 T10181021  RH  098%=      5-min Rain = 0
KMD1 100526Z 26002KT M02/M02 A304 RMK A01 T10181020  RH  098%=      5-min Rain = 0
KMD1 100527Z 25002KT M02/M02 A304 RMK A01 T10181021  RH  098%=      5-min Rain = 0
KMD1 100528Z 25002KT M02/M02 A304 RMK A01 T10181020  RH  098%=      5-min Rain = 0
KMD1 100529Z 26002KT M02/M02 A304 RMK A01 T10171020  RH  098%=      5-min Rain = 0
KMD1 100530Z 26002KT M02/M02 A304 RMK A01 T10171020  RH  098%=      5-min Rain = 0
KMD1 100531Z 26001KT M02/M02 A304 RMK A01 T10181020  RH  098%=      5-min Rain = 0
KMD1 100532Z 27002KT M02/M02 A304 RMK A01 T10171020  RH  098%=      5-min Rain = 0
KMD1 100533Z 25002KT M02/M02 A304 RMK A01 T10181020  RH  098%=      5-min Rain = 0
KMD1 100534Z 25002KT M02/M02 A3041 RMK A01 T10181021  RH  098%=      5-min Rain = 0
KMD1 100535Z 25002KT M02/M02 A3041 RMK A01 T10181021  RH  098%=      5-min Rain = 0
KMD1 100536Z 25002KT M02/M02 A3041 RMK A01 T10181021  RH  098%=      5-min Rain = 0
KMD1 100537Z 25002KT M02/M02 A3041 RMK A01 T10181021  RH  098%=      5-min Rain = 0
KMD1 100538Z 25001KT M02/M02 A3041 RMK A01 T10181021  RH  098%=      5-min Rain = 0
KMD1 100539Z 25001KT M02/M02 A3041 RMK A01 T10191021  RH  098%=      5-min Rain = 0
KMD1 100540Z 25001KT M02/M02 A3041 RMK A01 T10191022  RH  098%=      5-min Rain = 0
KMD1 100541Z 25001KT M02/M02 A3041 RMK A01 T10191022  RH  098%=      5-min Rain = 0
KMD1 100542Z 25001KT M02/M02 A3041 RMK A01 T10201022  RH  098%=      5-min Rain = 0
KMD1 100543Z 25001KT M02/M02 A3041 RMK A01 T10201023  RH  098%=      5-min Rain = 0
KMD1 100544Z 25001KT M02/M02 A3041 RMK A01 T10201023  RH  098%=      5-min Rain = 0
KMD1 100545Z 25002KT M02/M02 A3041 RMK A01 T10201023  RH  098%=      5-min Rain = 0
KMD1 100546Z 24002KT M02/M02 A304 RMK A01 T10211023  RH  098%=      5-min Rain = 0
KMD1 100547Z 24002KT M02/M02 A304 RMK A01 T10211023  RH  098%=      5-min Rain = 0
KMD1 100548Z 24002KT M02/M02 A304 RMK A01 T10201023  RH  098%=      5-min Rain = 0
KMD1 100549Z 24001KT M02/M02 A3041 RMK A01 T10201023  RH  098%=      5-min Rain = 0
KMD1 100550Z 25001KT M02/M02 A3041 RMK A01 T10201023  RH  098%=      5-min Rain = 0
KMD1 100551Z 26002KT M02/M02 A3041 RMK A01 T10211024  RH  098%=      5-min Rain = 0
KMD1 100552Z 26002KT M02/M03 A3041 RMK A01 T10221025  RH  098%=      5-min Rain = 0
KMD1 100553Z 26002KT M02/M03 A3041 RMK A01 T10221025  RH  098%=      5-min Rain = 0
KMD1 100554Z 25002KT M02/M03 A3041 RMK A01 T10231025  RH  098%=      5-min Rain = 0
KMD1 100555Z 26002KT M02/M03 A3041 RMK A01 T10231026  RH  098%=      5-min Rain = 0
KMD1 100556Z 27001KT M02/M03 A3041 RMK A01 T10231025  RH  098%=      5-min Rain = 0
KMD1 100557Z 28001KT M02/M03 A3041 RMK A01 T10231026  RH  098%=      5-min Rain = 0
KMD1 100558Z 28001KT M02/M03 A3041 RMK A01 T10241027  RH  098%=      5-min Rain = 0
KMD1 100559Z 29002KT M02/M03 A3041 RMK A01 T10241027  RH  098%=      5-min Rain = 0

Page generated in 0.0316 seconds.